<?xml version="1.0" encoding="UTF-8"?>
<gpx xmlns="http://www.topografix.com/GPX/1/1" xmlns:xsi="http://www.w3.org/2001/XMLSchema-instance" version="1.1" creator="Trace de Trail" xsi:schemaLocation="http://www.topografix.com/GPX/1/1 http://www.topografix.com/GPX/1/1/gpx.xsd">
  <metadata>
    <name>Trail de Dinant Winter  2026 - 22KM</name>
    <desc>Parcours créé sur Trace de Trail</desc>
    <link href="https://tracedetrail.fr/fr/trace/355478">
      <text>Cartographie du parcours</text>
    </link>
    <time>2026-08-13T10:34:19+00:00</time>
  </metadata>
  <wpt lat="50.26006" lon="4.90783">
    <ele>123</ele>
    <type>depart</type>
  </wpt>
  <wpt lat="50.2361" lon="4.93879">
    <ele>253</ele>
    <type></type>
  </wpt>
  <wpt lat="50.26006" lon="4.90783">
    <ele>123</ele>
    <type>arrivee</type>
  </wpt>
  <trk>
    <name>Trail de Dinant Winter  2026 - 22KM sur TraceDeTrail.fr</name>
    <src>Trace de Trail</src>
    <trkseg>
      <trkpt lat="50.26006" lon="4.90783">
        <ele>123</ele>
        <time>2026-08-13T10:34:19+00:00</time>
      </trkpt>
      <trkpt lat="50.2603" lon="4.90738">
        <ele>123</ele>
        <time>2026-08-13T10:34:22+00:00</time>
      </trkpt>
      <trkpt lat="50.26048" lon="4.90734">
        <ele>121</ele>
        <time>2026-08-13T10:34:25+00:00</time>
      </trkpt>
      <trkpt lat="50.26047" lon="4.90746">
        <ele>119</ele>
        <time>2026-08-13T10:34:28+00:00</time>
      </trkpt>
      <trkpt lat="50.26044" lon="4.90768">
        <ele>116</ele>
        <time>2026-08-13T10:34:31+00:00</time>
      </trkpt>
      <trkpt lat="50.26039" lon="4.90785">
        <ele>115</ele>
        <time>2026-08-13T10:34:34+00:00</time>
      </trkpt>
      <trkpt lat="50.2603" lon="4.90803">
        <ele>112</ele>
        <time>2026-08-13T10:34:37+00:00</time>
      </trkpt>
      <trkpt lat="50.26004" lon="4.90844">
        <ele>113</ele>
        <time>2026-08-13T10:34:40+00:00</time>
      </trkpt>
      <trkpt lat="50.25976" lon="4.90878">
        <ele>112</ele>
        <time>2026-08-13T10:34:43+00:00</time>
      </trkpt>
      <trkpt lat="50.25959" lon="4.90898">
        <ele>112</ele>
        <time>2026-08-13T10:34:46+00:00</time>
      </trkpt>
      <trkpt lat="50.25941" lon="4.90919">
        <ele>108</ele>
        <time>2026-08-13T10:34:49+00:00</time>
      </trkpt>
      <trkpt lat="50.2592" lon="4.90949">
        <ele>104</ele>
        <time>2026-08-13T10:34:52+00:00</time>
      </trkpt>
      <trkpt lat="50.25922" lon="4.90951">
        <ele>99</ele>
        <time>2026-08-13T10:34:55+00:00</time>
      </trkpt>
      <trkpt lat="50.25911" lon="4.90966">
        <ele>97</ele>
        <time>2026-08-13T10:34:58+00:00</time>
      </trkpt>
      <trkpt lat="50.25913" lon="4.90968">
        <ele>97</ele>
        <time>2026-08-13T10:35:01+00:00</time>
      </trkpt>
      <trkpt lat="50.25922" lon="4.9096">
        <ele>97</ele>
        <time>2026-08-13T10:35:04+00:00</time>
      </trkpt>
      <trkpt lat="50.25927" lon="4.90972">
        <ele>97</ele>
        <time>2026-08-13T10:35:07+00:00</time>
      </trkpt>
      <trkpt lat="50.2593" lon="4.90976">
        <ele>96</ele>
        <time>2026-08-13T10:35:10+00:00</time>
      </trkpt>
      <trkpt lat="50.25933" lon="4.90977">
        <ele>97</ele>
        <time>2026-08-13T10:35:13+00:00</time>
      </trkpt>
      <trkpt lat="50.2596" lon="4.90981">
        <ele>97</ele>
        <time>2026-08-13T10:35:16+00:00</time>
      </trkpt>
      <trkpt lat="50.25986" lon="4.90983">
        <ele>96</ele>
        <time>2026-08-13T10:35:19+00:00</time>
      </trkpt>
      <trkpt lat="50.25996" lon="4.90992">
        <ele>95</ele>
        <time>2026-08-13T10:35:22+00:00</time>
      </trkpt>
      <trkpt lat="50.26002" lon="4.90991">
        <ele>95</ele>
        <time>2026-08-13T10:35:25+00:00</time>
      </trkpt>
      <trkpt lat="50.26002" lon="4.90992">
        <ele>95</ele>
        <time>2026-08-13T10:35:28+00:00</time>
      </trkpt>
      <trkpt lat="50.26004" lon="4.90997">
        <ele>95</ele>
        <time>2026-08-13T10:35:31+00:00</time>
      </trkpt>
      <trkpt lat="50.26006" lon="4.90998">
        <ele>95</ele>
        <time>2026-08-13T10:35:34+00:00</time>
      </trkpt>
      <trkpt lat="50.2601" lon="4.90998">
        <ele>95</ele>
        <time>2026-08-13T10:35:37+00:00</time>
      </trkpt>
      <trkpt lat="50.2602" lon="4.91045">
        <ele>94</ele>
        <time>2026-08-13T10:35:40+00:00</time>
      </trkpt>
      <trkpt lat="50.26021" lon="4.91047">
        <ele>94</ele>
        <time>2026-08-13T10:35:43+00:00</time>
      </trkpt>
      <trkpt lat="50.26023" lon="4.91059">
        <ele>93</ele>
        <time>2026-08-13T10:35:46+00:00</time>
      </trkpt>
      <trkpt lat="50.26031" lon="4.911">
        <ele>92</ele>
        <time>2026-08-13T10:35:49+00:00</time>
      </trkpt>
      <trkpt lat="50.26039" lon="4.9114">
        <ele>92</ele>
        <time>2026-08-13T10:35:52+00:00</time>
      </trkpt>
      <trkpt lat="50.26049" lon="4.91193">
        <ele>92</ele>
        <time>2026-08-13T10:35:55+00:00</time>
      </trkpt>
      <trkpt lat="50.26057" lon="4.91215">
        <ele>94</ele>
        <time>2026-08-13T10:35:58+00:00</time>
      </trkpt>
      <trkpt lat="50.2608" lon="4.91223">
        <ele>93</ele>
        <time>2026-08-13T10:36:01+00:00</time>
      </trkpt>
      <trkpt lat="50.26098" lon="4.91269">
        <ele>95</ele>
        <time>2026-08-13T10:36:04+00:00</time>
      </trkpt>
      <trkpt lat="50.26109" lon="4.91302">
        <ele>99</ele>
        <time>2026-08-13T10:36:07+00:00</time>
      </trkpt>
      <trkpt lat="50.26123" lon="4.91342">
        <ele>122</ele>
        <time>2026-08-13T10:36:10+00:00</time>
      </trkpt>
      <trkpt lat="50.26151" lon="4.9135">
        <ele>145</ele>
        <time>2026-08-13T10:36:13+00:00</time>
      </trkpt>
      <trkpt lat="50.26154" lon="4.91329">
        <ele>134</ele>
        <time>2026-08-13T10:36:16+00:00</time>
      </trkpt>
      <trkpt lat="50.26156" lon="4.9133">
        <ele>134</ele>
        <time>2026-08-13T10:36:19+00:00</time>
      </trkpt>
      <trkpt lat="50.26155" lon="4.91362">
        <ele>142</ele>
        <time>2026-08-13T10:36:22+00:00</time>
      </trkpt>
      <trkpt lat="50.26156" lon="4.91362">
        <ele>150</ele>
        <time>2026-08-13T10:36:25+00:00</time>
      </trkpt>
      <trkpt lat="50.26161" lon="4.91331">
        <ele>140</ele>
        <time>2026-08-13T10:36:28+00:00</time>
      </trkpt>
      <trkpt lat="50.26161" lon="4.91324">
        <ele>137</ele>
        <time>2026-08-13T10:36:31+00:00</time>
      </trkpt>
      <trkpt lat="50.26158" lon="4.91293">
        <ele>134</ele>
        <time>2026-08-13T10:36:34+00:00</time>
      </trkpt>
      <trkpt lat="50.26162" lon="4.91292">
        <ele>128</ele>
        <time>2026-08-13T10:36:37+00:00</time>
      </trkpt>
      <trkpt lat="50.26162" lon="4.91304">
        <ele>130</ele>
        <time>2026-08-13T10:36:40+00:00</time>
      </trkpt>
      <trkpt lat="50.26167" lon="4.91305">
        <ele>130</ele>
        <time>2026-08-13T10:36:43+00:00</time>
      </trkpt>
      <trkpt lat="50.26166" lon="4.91292">
        <ele>128</ele>
        <time>2026-08-13T10:36:46+00:00</time>
      </trkpt>
      <trkpt lat="50.26172" lon="4.9129">
        <ele>130</ele>
        <time>2026-08-13T10:36:49+00:00</time>
      </trkpt>
      <trkpt lat="50.26169" lon="4.91276">
        <ele>122</ele>
        <time>2026-08-13T10:36:52+00:00</time>
      </trkpt>
      <trkpt lat="50.26166" lon="4.91255">
        <ele>117</ele>
        <time>2026-08-13T10:36:55+00:00</time>
      </trkpt>
      <trkpt lat="50.26161" lon="4.91242">
        <ele>115</ele>
        <time>2026-08-13T10:36:58+00:00</time>
      </trkpt>
      <trkpt lat="50.26162" lon="4.91218">
        <ele>118</ele>
        <time>2026-08-13T10:37:01+00:00</time>
      </trkpt>
      <trkpt lat="50.2617" lon="4.91213">
        <ele>111</ele>
        <time>2026-08-13T10:37:04+00:00</time>
      </trkpt>
      <trkpt lat="50.26174" lon="4.91224">
        <ele>113</ele>
        <time>2026-08-13T10:37:07+00:00</time>
      </trkpt>
      <trkpt lat="50.26182" lon="4.9124">
        <ele>120</ele>
        <time>2026-08-13T10:37:10+00:00</time>
      </trkpt>
      <trkpt lat="50.26187" lon="4.91283">
        <ele>130</ele>
        <time>2026-08-13T10:37:13+00:00</time>
      </trkpt>
      <trkpt lat="50.26188" lon="4.91303">
        <ele>136</ele>
        <time>2026-08-13T10:37:16+00:00</time>
      </trkpt>
      <trkpt lat="50.2619" lon="4.91328">
        <ele>143</ele>
        <time>2026-08-13T10:37:19+00:00</time>
      </trkpt>
      <trkpt lat="50.26193" lon="4.91332">
        <ele>146</ele>
        <time>2026-08-13T10:37:22+00:00</time>
      </trkpt>
      <trkpt lat="50.262" lon="4.91333">
        <ele>148</ele>
        <time>2026-08-13T10:37:25+00:00</time>
      </trkpt>
      <trkpt lat="50.26205" lon="4.91337">
        <ele>148</ele>
        <time>2026-08-13T10:37:28+00:00</time>
      </trkpt>
      <trkpt lat="50.26205" lon="4.91346">
        <ele>146</ele>
        <time>2026-08-13T10:37:31+00:00</time>
      </trkpt>
      <trkpt lat="50.262" lon="4.9135">
        <ele>153</ele>
        <time>2026-08-13T10:37:34+00:00</time>
      </trkpt>
      <trkpt lat="50.26192" lon="4.91352">
        <ele>152</ele>
        <time>2026-08-13T10:37:37+00:00</time>
      </trkpt>
      <trkpt lat="50.26183" lon="4.91357">
        <ele>150</ele>
        <time>2026-08-13T10:37:40+00:00</time>
      </trkpt>
      <trkpt lat="50.26182" lon="4.91383">
        <ele>160</ele>
        <time>2026-08-13T10:37:43+00:00</time>
      </trkpt>
      <trkpt lat="50.26182" lon="4.91397">
        <ele>163</ele>
        <time>2026-08-13T10:37:46+00:00</time>
      </trkpt>
      <trkpt lat="50.2619" lon="4.91414">
        <ele>169</ele>
        <time>2026-08-13T10:37:49+00:00</time>
      </trkpt>
      <trkpt lat="50.26177" lon="4.91415">
        <ele>167</ele>
        <time>2026-08-13T10:37:52+00:00</time>
      </trkpt>
      <trkpt lat="50.26175" lon="4.91435">
        <ele>171</ele>
        <time>2026-08-13T10:37:55+00:00</time>
      </trkpt>
      <trkpt lat="50.26172" lon="4.91439">
        <ele>171</ele>
        <time>2026-08-13T10:37:58+00:00</time>
      </trkpt>
      <trkpt lat="50.26164" lon="4.91445">
        <ele>172</ele>
        <time>2026-08-13T10:38:01+00:00</time>
      </trkpt>
      <trkpt lat="50.2615" lon="4.91457">
        <ele>172</ele>
        <time>2026-08-13T10:38:04+00:00</time>
      </trkpt>
      <trkpt lat="50.26143" lon="4.91472">
        <ele>173</ele>
        <time>2026-08-13T10:38:07+00:00</time>
      </trkpt>
      <trkpt lat="50.26141" lon="4.9148">
        <ele>173</ele>
        <time>2026-08-13T10:38:10+00:00</time>
      </trkpt>
      <trkpt lat="50.2614" lon="4.91491">
        <ele>173</ele>
        <time>2026-08-13T10:38:13+00:00</time>
      </trkpt>
      <trkpt lat="50.26141" lon="4.91501">
        <ele>178</ele>
        <time>2026-08-13T10:38:16+00:00</time>
      </trkpt>
      <trkpt lat="50.26143" lon="4.91507">
        <ele>178</ele>
        <time>2026-08-13T10:38:19+00:00</time>
      </trkpt>
      <trkpt lat="50.26146" lon="4.91511">
        <ele>181</ele>
        <time>2026-08-13T10:38:22+00:00</time>
      </trkpt>
      <trkpt lat="50.26152" lon="4.91516">
        <ele>182</ele>
        <time>2026-08-13T10:38:25+00:00</time>
      </trkpt>
      <trkpt lat="50.26155" lon="4.91521">
        <ele>183</ele>
        <time>2026-08-13T10:38:28+00:00</time>
      </trkpt>
      <trkpt lat="50.26167" lon="4.91526">
        <ele>183</ele>
        <time>2026-08-13T10:38:31+00:00</time>
      </trkpt>
      <trkpt lat="50.26168" lon="4.91525">
        <ele>183</ele>
        <time>2026-08-13T10:38:34+00:00</time>
      </trkpt>
      <trkpt lat="50.26167" lon="4.91526">
        <ele>183</ele>
        <time>2026-08-13T10:38:37+00:00</time>
      </trkpt>
      <trkpt lat="50.26164" lon="4.91554">
        <ele>183</ele>
        <time>2026-08-13T10:38:40+00:00</time>
      </trkpt>
      <trkpt lat="50.2616" lon="4.91591">
        <ele>183</ele>
        <time>2026-08-13T10:38:43+00:00</time>
      </trkpt>
      <trkpt lat="50.26156" lon="4.91626">
        <ele>183</ele>
        <time>2026-08-13T10:38:46+00:00</time>
      </trkpt>
      <trkpt lat="50.26151" lon="4.91667">
        <ele>184</ele>
        <time>2026-08-13T10:38:49+00:00</time>
      </trkpt>
      <trkpt lat="50.26149" lon="4.91677">
        <ele>185</ele>
        <time>2026-08-13T10:38:52+00:00</time>
      </trkpt>
      <trkpt lat="50.26135" lon="4.91673">
        <ele>185</ele>
        <time>2026-08-13T10:38:55+00:00</time>
      </trkpt>
      <trkpt lat="50.26126" lon="4.91673">
        <ele>186</ele>
        <time>2026-08-13T10:38:58+00:00</time>
      </trkpt>
      <trkpt lat="50.261" lon="4.91677">
        <ele>184</ele>
        <time>2026-08-13T10:39:01+00:00</time>
      </trkpt>
      <trkpt lat="50.26084" lon="4.91676">
        <ele>186</ele>
        <time>2026-08-13T10:39:04+00:00</time>
      </trkpt>
      <trkpt lat="50.26062" lon="4.91676">
        <ele>184</ele>
        <time>2026-08-13T10:39:07+00:00</time>
      </trkpt>
      <trkpt lat="50.26024" lon="4.91675">
        <ele>181</ele>
        <time>2026-08-13T10:39:10+00:00</time>
      </trkpt>
      <trkpt lat="50.26014" lon="4.91668">
        <ele>179</ele>
        <time>2026-08-13T10:39:13+00:00</time>
      </trkpt>
      <trkpt lat="50.26005" lon="4.91667">
        <ele>178</ele>
        <time>2026-08-13T10:39:16+00:00</time>
      </trkpt>
      <trkpt lat="50.25997" lon="4.91673">
        <ele>178</ele>
        <time>2026-08-13T10:39:19+00:00</time>
      </trkpt>
      <trkpt lat="50.25988" lon="4.91675">
        <ele>176</ele>
        <time>2026-08-13T10:39:22+00:00</time>
      </trkpt>
      <trkpt lat="50.25972" lon="4.91682">
        <ele>176</ele>
        <time>2026-08-13T10:39:25+00:00</time>
      </trkpt>
      <trkpt lat="50.25966" lon="4.91682">
        <ele>178</ele>
        <time>2026-08-13T10:39:28+00:00</time>
      </trkpt>
      <trkpt lat="50.25967" lon="4.91682">
        <ele>174</ele>
        <time>2026-08-13T10:39:31+00:00</time>
      </trkpt>
      <trkpt lat="50.25965" lon="4.91685">
        <ele>174</ele>
        <time>2026-08-13T10:39:34+00:00</time>
      </trkpt>
      <trkpt lat="50.25964" lon="4.91696">
        <ele>176</ele>
        <time>2026-08-13T10:39:37+00:00</time>
      </trkpt>
      <trkpt lat="50.25954" lon="4.91721">
        <ele>181</ele>
        <time>2026-08-13T10:39:40+00:00</time>
      </trkpt>
      <trkpt lat="50.25952" lon="4.91734">
        <ele>183</ele>
        <time>2026-08-13T10:39:43+00:00</time>
      </trkpt>
      <trkpt lat="50.25944" lon="4.9175">
        <ele>184</ele>
        <time>2026-08-13T10:39:46+00:00</time>
      </trkpt>
      <trkpt lat="50.25947" lon="4.91786">
        <ele>185</ele>
        <time>2026-08-13T10:39:49+00:00</time>
      </trkpt>
      <trkpt lat="50.25944" lon="4.91795">
        <ele>185</ele>
        <time>2026-08-13T10:39:52+00:00</time>
      </trkpt>
      <trkpt lat="50.25935" lon="4.91817">
        <ele>185</ele>
        <time>2026-08-13T10:39:55+00:00</time>
      </trkpt>
      <trkpt lat="50.2591" lon="4.91855">
        <ele>185</ele>
        <time>2026-08-13T10:39:58+00:00</time>
      </trkpt>
      <trkpt lat="50.25903" lon="4.91847">
        <ele>185</ele>
        <time>2026-08-13T10:40:01+00:00</time>
      </trkpt>
      <trkpt lat="50.25897" lon="4.91834">
        <ele>184</ele>
        <time>2026-08-13T10:40:04+00:00</time>
      </trkpt>
      <trkpt lat="50.25857" lon="4.91844">
        <ele>184</ele>
        <time>2026-08-13T10:40:07+00:00</time>
      </trkpt>
      <trkpt lat="50.25834" lon="4.91851">
        <ele>184</ele>
        <time>2026-08-13T10:40:10+00:00</time>
      </trkpt>
      <trkpt lat="50.25807" lon="4.9186">
        <ele>184</ele>
        <time>2026-08-13T10:40:13+00:00</time>
      </trkpt>
      <trkpt lat="50.258" lon="4.91855">
        <ele>185</ele>
        <time>2026-08-13T10:40:16+00:00</time>
      </trkpt>
      <trkpt lat="50.25793" lon="4.91854">
        <ele>184</ele>
        <time>2026-08-13T10:40:19+00:00</time>
      </trkpt>
      <trkpt lat="50.25788" lon="4.91855">
        <ele>184</ele>
        <time>2026-08-13T10:40:22+00:00</time>
      </trkpt>
      <trkpt lat="50.25777" lon="4.91867">
        <ele>184</ele>
        <time>2026-08-13T10:40:25+00:00</time>
      </trkpt>
      <trkpt lat="50.25769" lon="4.91889">
        <ele>184</ele>
        <time>2026-08-13T10:40:28+00:00</time>
      </trkpt>
      <trkpt lat="50.2576" lon="4.91912">
        <ele>185</ele>
        <time>2026-08-13T10:40:31+00:00</time>
      </trkpt>
      <trkpt lat="50.25743" lon="4.91954">
        <ele>189</ele>
        <time>2026-08-13T10:40:34+00:00</time>
      </trkpt>
      <trkpt lat="50.25729" lon="4.91971">
        <ele>190</ele>
        <time>2026-08-13T10:40:37+00:00</time>
      </trkpt>
      <trkpt lat="50.25725" lon="4.91974">
        <ele>190</ele>
        <time>2026-08-13T10:40:40+00:00</time>
      </trkpt>
      <trkpt lat="50.25714" lon="4.91978">
        <ele>190</ele>
        <time>2026-08-13T10:40:43+00:00</time>
      </trkpt>
      <trkpt lat="50.25705" lon="4.91979">
        <ele>190</ele>
        <time>2026-08-13T10:40:46+00:00</time>
      </trkpt>
      <trkpt lat="50.25698" lon="4.91976">
        <ele>190</ele>
        <time>2026-08-13T10:40:49+00:00</time>
      </trkpt>
      <trkpt lat="50.25688" lon="4.91967">
        <ele>190</ele>
        <time>2026-08-13T10:40:52+00:00</time>
      </trkpt>
      <trkpt lat="50.25677" lon="4.9195">
        <ele>190</ele>
        <time>2026-08-13T10:40:55+00:00</time>
      </trkpt>
      <trkpt lat="50.25664" lon="4.91923">
        <ele>190</ele>
        <time>2026-08-13T10:40:58+00:00</time>
      </trkpt>
      <trkpt lat="50.25657" lon="4.91913">
        <ele>191</ele>
        <time>2026-08-13T10:41:01+00:00</time>
      </trkpt>
      <trkpt lat="50.25655" lon="4.91911">
        <ele>191</ele>
        <time>2026-08-13T10:41:04+00:00</time>
      </trkpt>
      <trkpt lat="50.25632" lon="4.9191">
        <ele>190</ele>
        <time>2026-08-13T10:41:07+00:00</time>
      </trkpt>
      <trkpt lat="50.25627" lon="4.91908">
        <ele>191</ele>
        <time>2026-08-13T10:41:10+00:00</time>
      </trkpt>
      <trkpt lat="50.25604" lon="4.91913">
        <ele>190</ele>
        <time>2026-08-13T10:41:13+00:00</time>
      </trkpt>
      <trkpt lat="50.25591" lon="4.91923">
        <ele>189</ele>
        <time>2026-08-13T10:41:16+00:00</time>
      </trkpt>
      <trkpt lat="50.25587" lon="4.91932">
        <ele>190</ele>
        <time>2026-08-13T10:41:19+00:00</time>
      </trkpt>
      <trkpt lat="50.25584" lon="4.91936">
        <ele>190</ele>
        <time>2026-08-13T10:41:22+00:00</time>
      </trkpt>
      <trkpt lat="50.25579" lon="4.9194">
        <ele>191</ele>
        <time>2026-08-13T10:41:25+00:00</time>
      </trkpt>
      <trkpt lat="50.25577" lon="4.91939">
        <ele>189</ele>
        <time>2026-08-13T10:41:28+00:00</time>
      </trkpt>
      <trkpt lat="50.2557" lon="4.91933">
        <ele>191</ele>
        <time>2026-08-13T10:41:31+00:00</time>
      </trkpt>
      <trkpt lat="50.25566" lon="4.91933">
        <ele>189</ele>
        <time>2026-08-13T10:41:34+00:00</time>
      </trkpt>
      <trkpt lat="50.25563" lon="4.91935">
        <ele>189</ele>
        <time>2026-08-13T10:41:37+00:00</time>
      </trkpt>
      <trkpt lat="50.25547" lon="4.91939">
        <ele>192</ele>
        <time>2026-08-13T10:41:40+00:00</time>
      </trkpt>
      <trkpt lat="50.25534" lon="4.91961">
        <ele>196</ele>
        <time>2026-08-13T10:41:43+00:00</time>
      </trkpt>
      <trkpt lat="50.2553" lon="4.91965">
        <ele>196</ele>
        <time>2026-08-13T10:41:46+00:00</time>
      </trkpt>
      <trkpt lat="50.25513" lon="4.91975">
        <ele>196</ele>
        <time>2026-08-13T10:41:49+00:00</time>
      </trkpt>
      <trkpt lat="50.25501" lon="4.9198">
        <ele>196</ele>
        <time>2026-08-13T10:41:52+00:00</time>
      </trkpt>
      <trkpt lat="50.2549" lon="4.91986">
        <ele>196</ele>
        <time>2026-08-13T10:41:55+00:00</time>
      </trkpt>
      <trkpt lat="50.25472" lon="4.91987">
        <ele>196</ele>
        <time>2026-08-13T10:41:58+00:00</time>
      </trkpt>
      <trkpt lat="50.25451" lon="4.91994">
        <ele>195</ele>
        <time>2026-08-13T10:42:01+00:00</time>
      </trkpt>
      <trkpt lat="50.25438" lon="4.91995">
        <ele>193</ele>
        <time>2026-08-13T10:42:04+00:00</time>
      </trkpt>
      <trkpt lat="50.2543" lon="4.91998">
        <ele>193</ele>
        <time>2026-08-13T10:42:07+00:00</time>
      </trkpt>
      <trkpt lat="50.25422" lon="4.92002">
        <ele>191</ele>
        <time>2026-08-13T10:42:10+00:00</time>
      </trkpt>
      <trkpt lat="50.25416" lon="4.92002">
        <ele>189</ele>
        <time>2026-08-13T10:42:13+00:00</time>
      </trkpt>
      <trkpt lat="50.25408" lon="4.91997">
        <ele>186</ele>
        <time>2026-08-13T10:42:16+00:00</time>
      </trkpt>
      <trkpt lat="50.25404" lon="4.91998">
        <ele>186</ele>
        <time>2026-08-13T10:42:19+00:00</time>
      </trkpt>
      <trkpt lat="50.25401" lon="4.92">
        <ele>187</ele>
        <time>2026-08-13T10:42:22+00:00</time>
      </trkpt>
      <trkpt lat="50.25396" lon="4.92005">
        <ele>185</ele>
        <time>2026-08-13T10:42:25+00:00</time>
      </trkpt>
      <trkpt lat="50.25388" lon="4.92025">
        <ele>185</ele>
        <time>2026-08-13T10:42:28+00:00</time>
      </trkpt>
      <trkpt lat="50.25385" lon="4.92041">
        <ele>186</ele>
        <time>2026-08-13T10:42:31+00:00</time>
      </trkpt>
      <trkpt lat="50.25382" lon="4.92049">
        <ele>186</ele>
        <time>2026-08-13T10:42:34+00:00</time>
      </trkpt>
      <trkpt lat="50.25374" lon="4.92066">
        <ele>183</ele>
        <time>2026-08-13T10:42:37+00:00</time>
      </trkpt>
      <trkpt lat="50.25373" lon="4.92072">
        <ele>183</ele>
        <time>2026-08-13T10:42:40+00:00</time>
      </trkpt>
      <trkpt lat="50.25375" lon="4.92083">
        <ele>182</ele>
        <time>2026-08-13T10:42:43+00:00</time>
      </trkpt>
      <trkpt lat="50.25373" lon="4.92092">
        <ele>180</ele>
        <time>2026-08-13T10:42:46+00:00</time>
      </trkpt>
      <trkpt lat="50.25373" lon="4.921">
        <ele>180</ele>
        <time>2026-08-13T10:42:49+00:00</time>
      </trkpt>
      <trkpt lat="50.25376" lon="4.92107">
        <ele>180</ele>
        <time>2026-08-13T10:42:52+00:00</time>
      </trkpt>
      <trkpt lat="50.25368" lon="4.92124">
        <ele>179</ele>
        <time>2026-08-13T10:42:55+00:00</time>
      </trkpt>
      <trkpt lat="50.25349" lon="4.92142">
        <ele>179</ele>
        <time>2026-08-13T10:42:58+00:00</time>
      </trkpt>
      <trkpt lat="50.2533" lon="4.92161">
        <ele>180</ele>
        <time>2026-08-13T10:43:01+00:00</time>
      </trkpt>
      <trkpt lat="50.2533" lon="4.92162">
        <ele>180</ele>
        <time>2026-08-13T10:43:04+00:00</time>
      </trkpt>
      <trkpt lat="50.25342" lon="4.92204">
        <ele>186</ele>
        <time>2026-08-13T10:43:07+00:00</time>
      </trkpt>
      <trkpt lat="50.25355" lon="4.92247">
        <ele>193</ele>
        <time>2026-08-13T10:43:10+00:00</time>
      </trkpt>
      <trkpt lat="50.25371" lon="4.92302">
        <ele>195</ele>
        <time>2026-08-13T10:43:13+00:00</time>
      </trkpt>
      <trkpt lat="50.25385" lon="4.9236">
        <ele>198</ele>
        <time>2026-08-13T10:43:16+00:00</time>
      </trkpt>
      <trkpt lat="50.25389" lon="4.92423">
        <ele>198</ele>
        <time>2026-08-13T10:43:19+00:00</time>
      </trkpt>
      <trkpt lat="50.25389" lon="4.9244">
        <ele>199</ele>
        <time>2026-08-13T10:43:22+00:00</time>
      </trkpt>
      <trkpt lat="50.25388" lon="4.92455">
        <ele>199</ele>
        <time>2026-08-13T10:43:25+00:00</time>
      </trkpt>
      <trkpt lat="50.25385" lon="4.92472">
        <ele>201</ele>
        <time>2026-08-13T10:43:28+00:00</time>
      </trkpt>
      <trkpt lat="50.2538" lon="4.92489">
        <ele>202</ele>
        <time>2026-08-13T10:43:31+00:00</time>
      </trkpt>
      <trkpt lat="50.25359" lon="4.9254">
        <ele>206</ele>
        <time>2026-08-13T10:43:34+00:00</time>
      </trkpt>
      <trkpt lat="50.25358" lon="4.92549">
        <ele>206</ele>
        <time>2026-08-13T10:43:37+00:00</time>
      </trkpt>
      <trkpt lat="50.25363" lon="4.92598">
        <ele>213</ele>
        <time>2026-08-13T10:43:40+00:00</time>
      </trkpt>
      <trkpt lat="50.25367" lon="4.92631">
        <ele>215</ele>
        <time>2026-08-13T10:43:43+00:00</time>
      </trkpt>
      <trkpt lat="50.25372" lon="4.92664">
        <ele>217</ele>
        <time>2026-08-13T10:43:46+00:00</time>
      </trkpt>
      <trkpt lat="50.25382" lon="4.92709">
        <ele>219</ele>
        <time>2026-08-13T10:43:49+00:00</time>
      </trkpt>
      <trkpt lat="50.25388" lon="4.92744">
        <ele>220</ele>
        <time>2026-08-13T10:43:52+00:00</time>
      </trkpt>
      <trkpt lat="50.25396" lon="4.92782">
        <ele>222</ele>
        <time>2026-08-13T10:43:55+00:00</time>
      </trkpt>
      <trkpt lat="50.25407" lon="4.92835">
        <ele>223</ele>
        <time>2026-08-13T10:43:58+00:00</time>
      </trkpt>
      <trkpt lat="50.25416" lon="4.92882">
        <ele>224</ele>
        <time>2026-08-13T10:44:01+00:00</time>
      </trkpt>
      <trkpt lat="50.25425" lon="4.92928">
        <ele>225</ele>
        <time>2026-08-13T10:44:04+00:00</time>
      </trkpt>
      <trkpt lat="50.25439" lon="4.93002">
        <ele>226</ele>
        <time>2026-08-13T10:44:07+00:00</time>
      </trkpt>
      <trkpt lat="50.25444" lon="4.93009">
        <ele>226</ele>
        <time>2026-08-13T10:44:10+00:00</time>
      </trkpt>
      <trkpt lat="50.25445" lon="4.93037">
        <ele>226</ele>
        <time>2026-08-13T10:44:13+00:00</time>
      </trkpt>
      <trkpt lat="50.25435" lon="4.93031">
        <ele>227</ele>
        <time>2026-08-13T10:44:16+00:00</time>
      </trkpt>
      <trkpt lat="50.25418" lon="4.93018">
        <ele>228</ele>
        <time>2026-08-13T10:44:19+00:00</time>
      </trkpt>
      <trkpt lat="50.25397" lon="4.93002">
        <ele>229</ele>
        <time>2026-08-13T10:44:22+00:00</time>
      </trkpt>
      <trkpt lat="50.25372" lon="4.92981">
        <ele>229</ele>
        <time>2026-08-13T10:44:25+00:00</time>
      </trkpt>
      <trkpt lat="50.25323" lon="4.92941">
        <ele>231</ele>
        <time>2026-08-13T10:44:28+00:00</time>
      </trkpt>
      <trkpt lat="50.25301" lon="4.92925">
        <ele>231</ele>
        <time>2026-08-13T10:44:31+00:00</time>
      </trkpt>
      <trkpt lat="50.25273" lon="4.92905">
        <ele>233</ele>
        <time>2026-08-13T10:44:34+00:00</time>
      </trkpt>
      <trkpt lat="50.25251" lon="4.92888">
        <ele>234</ele>
        <time>2026-08-13T10:44:37+00:00</time>
      </trkpt>
      <trkpt lat="50.25223" lon="4.92867">
        <ele>237</ele>
        <time>2026-08-13T10:44:40+00:00</time>
      </trkpt>
      <trkpt lat="50.25194" lon="4.92844">
        <ele>238</ele>
        <time>2026-08-13T10:44:43+00:00</time>
      </trkpt>
      <trkpt lat="50.25166" lon="4.92822">
        <ele>238</ele>
        <time>2026-08-13T10:44:46+00:00</time>
      </trkpt>
      <trkpt lat="50.25111" lon="4.92778">
        <ele>239</ele>
        <time>2026-08-13T10:44:49+00:00</time>
      </trkpt>
      <trkpt lat="50.25086" lon="4.92761">
        <ele>239</ele>
        <time>2026-08-13T10:44:52+00:00</time>
      </trkpt>
      <trkpt lat="50.25068" lon="4.9275">
        <ele>239</ele>
        <time>2026-08-13T10:44:55+00:00</time>
      </trkpt>
      <trkpt lat="50.2503" lon="4.92749">
        <ele>237</ele>
        <time>2026-08-13T10:44:58+00:00</time>
      </trkpt>
      <trkpt lat="50.25005" lon="4.92745">
        <ele>234</ele>
        <time>2026-08-13T10:45:01+00:00</time>
      </trkpt>
      <trkpt lat="50.24968" lon="4.92739">
        <ele>230</ele>
        <time>2026-08-13T10:45:04+00:00</time>
      </trkpt>
      <trkpt lat="50.24945" lon="4.92736">
        <ele>227</ele>
        <time>2026-08-13T10:45:07+00:00</time>
      </trkpt>
      <trkpt lat="50.24918" lon="4.92731">
        <ele>224</ele>
        <time>2026-08-13T10:45:10+00:00</time>
      </trkpt>
      <trkpt lat="50.24871" lon="4.92722">
        <ele>220</ele>
        <time>2026-08-13T10:45:13+00:00</time>
      </trkpt>
      <trkpt lat="50.24839" lon="4.92718">
        <ele>217</ele>
        <time>2026-08-13T10:45:16+00:00</time>
      </trkpt>
      <trkpt lat="50.24815" lon="4.92709">
        <ele>215</ele>
        <time>2026-08-13T10:45:19+00:00</time>
      </trkpt>
      <trkpt lat="50.24803" lon="4.92696">
        <ele>213</ele>
        <time>2026-08-13T10:45:22+00:00</time>
      </trkpt>
      <trkpt lat="50.24795" lon="4.92677">
        <ele>211</ele>
        <time>2026-08-13T10:45:25+00:00</time>
      </trkpt>
      <trkpt lat="50.24788" lon="4.92658">
        <ele>210</ele>
        <time>2026-08-13T10:45:28+00:00</time>
      </trkpt>
      <trkpt lat="50.24774" lon="4.92643">
        <ele>209</ele>
        <time>2026-08-13T10:45:31+00:00</time>
      </trkpt>
      <trkpt lat="50.24767" lon="4.92638">
        <ele>208</ele>
        <time>2026-08-13T10:45:34+00:00</time>
      </trkpt>
      <trkpt lat="50.24754" lon="4.92637">
        <ele>207</ele>
        <time>2026-08-13T10:45:37+00:00</time>
      </trkpt>
      <trkpt lat="50.24737" lon="4.92623">
        <ele>206</ele>
        <time>2026-08-13T10:45:40+00:00</time>
      </trkpt>
      <trkpt lat="50.24715" lon="4.92605">
        <ele>205</ele>
        <time>2026-08-13T10:45:43+00:00</time>
      </trkpt>
      <trkpt lat="50.24687" lon="4.92581">
        <ele>204</ele>
        <time>2026-08-13T10:45:46+00:00</time>
      </trkpt>
      <trkpt lat="50.24665" lon="4.92567">
        <ele>204</ele>
        <time>2026-08-13T10:45:49+00:00</time>
      </trkpt>
      <trkpt lat="50.2464" lon="4.9255">
        <ele>202</ele>
        <time>2026-08-13T10:45:52+00:00</time>
      </trkpt>
      <trkpt lat="50.24615" lon="4.92535">
        <ele>202</ele>
        <time>2026-08-13T10:45:55+00:00</time>
      </trkpt>
      <trkpt lat="50.24583" lon="4.92514">
        <ele>205</ele>
        <time>2026-08-13T10:45:58+00:00</time>
      </trkpt>
      <trkpt lat="50.24566" lon="4.92506">
        <ele>216</ele>
        <time>2026-08-13T10:46:01+00:00</time>
      </trkpt>
      <trkpt lat="50.24548" lon="4.925">
        <ele>219</ele>
        <time>2026-08-13T10:46:04+00:00</time>
      </trkpt>
      <trkpt lat="50.24533" lon="4.92508">
        <ele>219</ele>
        <time>2026-08-13T10:46:07+00:00</time>
      </trkpt>
      <trkpt lat="50.24521" lon="4.92504">
        <ele>219</ele>
        <time>2026-08-13T10:46:10+00:00</time>
      </trkpt>
      <trkpt lat="50.24508" lon="4.92497">
        <ele>217</ele>
        <time>2026-08-13T10:46:13+00:00</time>
      </trkpt>
      <trkpt lat="50.2449" lon="4.92466">
        <ele>219</ele>
        <time>2026-08-13T10:46:16+00:00</time>
      </trkpt>
      <trkpt lat="50.24488" lon="4.92469">
        <ele>213</ele>
        <time>2026-08-13T10:46:19+00:00</time>
      </trkpt>
      <trkpt lat="50.24491" lon="4.92479">
        <ele>217</ele>
        <time>2026-08-13T10:46:22+00:00</time>
      </trkpt>
      <trkpt lat="50.24489" lon="4.92485">
        <ele>209</ele>
        <time>2026-08-13T10:46:25+00:00</time>
      </trkpt>
      <trkpt lat="50.24483" lon="4.92479">
        <ele>211</ele>
        <time>2026-08-13T10:46:28+00:00</time>
      </trkpt>
      <trkpt lat="50.24482" lon="4.92477">
        <ele>211</ele>
        <time>2026-08-13T10:46:31+00:00</time>
      </trkpt>
      <trkpt lat="50.24479" lon="4.92484">
        <ele>205</ele>
        <time>2026-08-13T10:46:34+00:00</time>
      </trkpt>
      <trkpt lat="50.24482" lon="4.92503">
        <ele>205</ele>
        <time>2026-08-13T10:46:37+00:00</time>
      </trkpt>
      <trkpt lat="50.2448" lon="4.92506">
        <ele>205</ele>
        <time>2026-08-13T10:46:40+00:00</time>
      </trkpt>
      <trkpt lat="50.24467" lon="4.9249">
        <ele>198</ele>
        <time>2026-08-13T10:46:43+00:00</time>
      </trkpt>
      <trkpt lat="50.24452" lon="4.92476">
        <ele>194</ele>
        <time>2026-08-13T10:46:46+00:00</time>
      </trkpt>
      <trkpt lat="50.24437" lon="4.92455">
        <ele>180</ele>
        <time>2026-08-13T10:46:49+00:00</time>
      </trkpt>
      <trkpt lat="50.24428" lon="4.92415">
        <ele>175</ele>
        <time>2026-08-13T10:46:52+00:00</time>
      </trkpt>
      <trkpt lat="50.24422" lon="4.92443">
        <ele>174</ele>
        <time>2026-08-13T10:46:55+00:00</time>
      </trkpt>
      <trkpt lat="50.24419" lon="4.92414">
        <ele>170</ele>
        <time>2026-08-13T10:46:58+00:00</time>
      </trkpt>
      <trkpt lat="50.2441" lon="4.92435">
        <ele>169</ele>
        <time>2026-08-13T10:47:01+00:00</time>
      </trkpt>
      <trkpt lat="50.24405" lon="4.92398">
        <ele>162</ele>
        <time>2026-08-13T10:47:04+00:00</time>
      </trkpt>
      <trkpt lat="50.244" lon="4.92414">
        <ele>162</ele>
        <time>2026-08-13T10:47:07+00:00</time>
      </trkpt>
      <trkpt lat="50.24396" lon="4.92436">
        <ele>158</ele>
        <time>2026-08-13T10:47:10+00:00</time>
      </trkpt>
      <trkpt lat="50.24395" lon="4.92452">
        <ele>158</ele>
        <time>2026-08-13T10:47:13+00:00</time>
      </trkpt>
      <trkpt lat="50.24396" lon="4.92477">
        <ele>155</ele>
        <time>2026-08-13T10:47:16+00:00</time>
      </trkpt>
      <trkpt lat="50.24393" lon="4.92479">
        <ele>155</ele>
        <time>2026-08-13T10:47:19+00:00</time>
      </trkpt>
      <trkpt lat="50.24386" lon="4.92463">
        <ele>149</ele>
        <time>2026-08-13T10:47:22+00:00</time>
      </trkpt>
      <trkpt lat="50.24381" lon="4.92441">
        <ele>149</ele>
        <time>2026-08-13T10:47:25+00:00</time>
      </trkpt>
      <trkpt lat="50.24372" lon="4.92384">
        <ele>138</ele>
        <time>2026-08-13T10:47:28+00:00</time>
      </trkpt>
      <trkpt lat="50.24369" lon="4.92353">
        <ele>131</ele>
        <time>2026-08-13T10:47:31+00:00</time>
      </trkpt>
      <trkpt lat="50.24364" lon="4.92312">
        <ele>129</ele>
        <time>2026-08-13T10:47:34+00:00</time>
      </trkpt>
      <trkpt lat="50.24363" lon="4.92311">
        <ele>129</ele>
        <time>2026-08-13T10:47:37+00:00</time>
      </trkpt>
      <trkpt lat="50.24358" lon="4.92334">
        <ele>121</ele>
        <time>2026-08-13T10:47:40+00:00</time>
      </trkpt>
      <trkpt lat="50.24352" lon="4.92367">
        <ele>120</ele>
        <time>2026-08-13T10:47:43+00:00</time>
      </trkpt>
      <trkpt lat="50.24347" lon="4.92385">
        <ele>107</ele>
        <time>2026-08-13T10:47:46+00:00</time>
      </trkpt>
      <trkpt lat="50.24344" lon="4.9241">
        <ele>109</ele>
        <time>2026-08-13T10:47:49+00:00</time>
      </trkpt>
      <trkpt lat="50.24341" lon="4.92424">
        <ele>109</ele>
        <time>2026-08-13T10:47:52+00:00</time>
      </trkpt>
      <trkpt lat="50.24339" lon="4.92424">
        <ele>102</ele>
        <time>2026-08-13T10:47:55+00:00</time>
      </trkpt>
      <trkpt lat="50.24336" lon="4.92403">
        <ele>100</ele>
        <time>2026-08-13T10:47:58+00:00</time>
      </trkpt>
      <trkpt lat="50.24332" lon="4.92361">
        <ele>98</ele>
        <time>2026-08-13T10:48:01+00:00</time>
      </trkpt>
      <trkpt lat="50.2433" lon="4.92351">
        <ele>98</ele>
        <time>2026-08-13T10:48:04+00:00</time>
      </trkpt>
      <trkpt lat="50.24329" lon="4.92331">
        <ele>98</ele>
        <time>2026-08-13T10:48:07+00:00</time>
      </trkpt>
      <trkpt lat="50.24323" lon="4.92331">
        <ele>97</ele>
        <time>2026-08-13T10:48:10+00:00</time>
      </trkpt>
      <trkpt lat="50.24324" lon="4.92365">
        <ele>98</ele>
        <time>2026-08-13T10:48:13+00:00</time>
      </trkpt>
      <trkpt lat="50.24325" lon="4.92411">
        <ele>99</ele>
        <time>2026-08-13T10:48:16+00:00</time>
      </trkpt>
      <trkpt lat="50.24325" lon="4.92454">
        <ele>100</ele>
        <time>2026-08-13T10:48:19+00:00</time>
      </trkpt>
      <trkpt lat="50.24324" lon="4.92529">
        <ele>109</ele>
        <time>2026-08-13T10:48:22+00:00</time>
      </trkpt>
      <trkpt lat="50.24324" lon="4.9257">
        <ele>118</ele>
        <time>2026-08-13T10:48:25+00:00</time>
      </trkpt>
      <trkpt lat="50.24325" lon="4.92585">
        <ele>119</ele>
        <time>2026-08-13T10:48:28+00:00</time>
      </trkpt>
      <trkpt lat="50.24328" lon="4.92601">
        <ele>118</ele>
        <time>2026-08-13T10:48:31+00:00</time>
      </trkpt>
      <trkpt lat="50.24332" lon="4.92609">
        <ele>121</ele>
        <time>2026-08-13T10:48:34+00:00</time>
      </trkpt>
      <trkpt lat="50.24349" lon="4.92637">
        <ele>119</ele>
        <time>2026-08-13T10:48:37+00:00</time>
      </trkpt>
      <trkpt lat="50.24376" lon="4.92682">
        <ele>118</ele>
        <time>2026-08-13T10:48:40+00:00</time>
      </trkpt>
      <trkpt lat="50.2439" lon="4.92709">
        <ele>118</ele>
        <time>2026-08-13T10:48:43+00:00</time>
      </trkpt>
      <trkpt lat="50.24405" lon="4.92737">
        <ele>126</ele>
        <time>2026-08-13T10:48:46+00:00</time>
      </trkpt>
      <trkpt lat="50.24399" lon="4.92737">
        <ele>131</ele>
        <time>2026-08-13T10:48:49+00:00</time>
      </trkpt>
      <trkpt lat="50.24379" lon="4.92717">
        <ele>136</ele>
        <time>2026-08-13T10:48:52+00:00</time>
      </trkpt>
      <trkpt lat="50.2435" lon="4.92687">
        <ele>137</ele>
        <time>2026-08-13T10:48:55+00:00</time>
      </trkpt>
      <trkpt lat="50.24331" lon="4.92672">
        <ele>138</ele>
        <time>2026-08-13T10:48:58+00:00</time>
      </trkpt>
      <trkpt lat="50.24311" lon="4.92656">
        <ele>142</ele>
        <time>2026-08-13T10:49:01+00:00</time>
      </trkpt>
      <trkpt lat="50.24283" lon="4.92629">
        <ele>148</ele>
        <time>2026-08-13T10:49:04+00:00</time>
      </trkpt>
      <trkpt lat="50.24262" lon="4.92597">
        <ele>154</ele>
        <time>2026-08-13T10:49:07+00:00</time>
      </trkpt>
      <trkpt lat="50.24248" lon="4.92553">
        <ele>159</ele>
        <time>2026-08-13T10:49:10+00:00</time>
      </trkpt>
      <trkpt lat="50.2424" lon="4.92513">
        <ele>160</ele>
        <time>2026-08-13T10:49:13+00:00</time>
      </trkpt>
      <trkpt lat="50.24227" lon="4.9245">
        <ele>163</ele>
        <time>2026-08-13T10:49:16+00:00</time>
      </trkpt>
      <trkpt lat="50.24218" lon="4.92418">
        <ele>164</ele>
        <time>2026-08-13T10:49:19+00:00</time>
      </trkpt>
      <trkpt lat="50.24208" lon="4.92382">
        <ele>169</ele>
        <time>2026-08-13T10:49:22+00:00</time>
      </trkpt>
      <trkpt lat="50.24193" lon="4.92326">
        <ele>168</ele>
        <time>2026-08-13T10:49:25+00:00</time>
      </trkpt>
      <trkpt lat="50.24173" lon="4.92289">
        <ele>167</ele>
        <time>2026-08-13T10:49:28+00:00</time>
      </trkpt>
      <trkpt lat="50.24161" lon="4.92282">
        <ele>163</ele>
        <time>2026-08-13T10:49:31+00:00</time>
      </trkpt>
      <trkpt lat="50.24154" lon="4.92283">
        <ele>166</ele>
        <time>2026-08-13T10:49:34+00:00</time>
      </trkpt>
      <trkpt lat="50.24146" lon="4.92294">
        <ele>160</ele>
        <time>2026-08-13T10:49:37+00:00</time>
      </trkpt>
      <trkpt lat="50.24154" lon="4.92313">
        <ele>166</ele>
        <time>2026-08-13T10:49:40+00:00</time>
      </trkpt>
      <trkpt lat="50.24168" lon="4.92358">
        <ele>167</ele>
        <time>2026-08-13T10:49:43+00:00</time>
      </trkpt>
      <trkpt lat="50.24173" lon="4.92383">
        <ele>173</ele>
        <time>2026-08-13T10:49:46+00:00</time>
      </trkpt>
      <trkpt lat="50.24174" lon="4.92405">
        <ele>176</ele>
        <time>2026-08-13T10:49:49+00:00</time>
      </trkpt>
      <trkpt lat="50.24175" lon="4.92428">
        <ele>178</ele>
        <time>2026-08-13T10:49:52+00:00</time>
      </trkpt>
      <trkpt lat="50.2418" lon="4.92472">
        <ele>180</ele>
        <time>2026-08-13T10:49:55+00:00</time>
      </trkpt>
      <trkpt lat="50.2418" lon="4.92504">
        <ele>186</ele>
        <time>2026-08-13T10:49:58+00:00</time>
      </trkpt>
      <trkpt lat="50.24182" lon="4.92513">
        <ele>182</ele>
        <time>2026-08-13T10:50:01+00:00</time>
      </trkpt>
      <trkpt lat="50.24187" lon="4.92522">
        <ele>184</ele>
        <time>2026-08-13T10:50:04+00:00</time>
      </trkpt>
      <trkpt lat="50.2419" lon="4.9253">
        <ele>187</ele>
        <time>2026-08-13T10:50:07+00:00</time>
      </trkpt>
      <trkpt lat="50.24195" lon="4.92568">
        <ele>192</ele>
        <time>2026-08-13T10:50:10+00:00</time>
      </trkpt>
      <trkpt lat="50.24196" lon="4.92582">
        <ele>194</ele>
        <time>2026-08-13T10:50:13+00:00</time>
      </trkpt>
      <trkpt lat="50.24196" lon="4.92597">
        <ele>192</ele>
        <time>2026-08-13T10:50:16+00:00</time>
      </trkpt>
      <trkpt lat="50.24189" lon="4.92624">
        <ele>192</ele>
        <time>2026-08-13T10:50:19+00:00</time>
      </trkpt>
      <trkpt lat="50.24181" lon="4.92652">
        <ele>192</ele>
        <time>2026-08-13T10:50:22+00:00</time>
      </trkpt>
      <trkpt lat="50.24175" lon="4.92682">
        <ele>195</ele>
        <time>2026-08-13T10:50:25+00:00</time>
      </trkpt>
      <trkpt lat="50.24176" lon="4.92703">
        <ele>200</ele>
        <time>2026-08-13T10:50:28+00:00</time>
      </trkpt>
      <trkpt lat="50.24184" lon="4.92729">
        <ele>195</ele>
        <time>2026-08-13T10:50:31+00:00</time>
      </trkpt>
      <trkpt lat="50.24193" lon="4.92724">
        <ele>196</ele>
        <time>2026-08-13T10:50:34+00:00</time>
      </trkpt>
      <trkpt lat="50.24213" lon="4.92719">
        <ele>196</ele>
        <time>2026-08-13T10:50:37+00:00</time>
      </trkpt>
      <trkpt lat="50.2422" lon="4.92722">
        <ele>197</ele>
        <time>2026-08-13T10:50:40+00:00</time>
      </trkpt>
      <trkpt lat="50.24229" lon="4.92743">
        <ele>200</ele>
        <time>2026-08-13T10:50:43+00:00</time>
      </trkpt>
      <trkpt lat="50.24237" lon="4.92757">
        <ele>202</ele>
        <time>2026-08-13T10:50:46+00:00</time>
      </trkpt>
      <trkpt lat="50.24243" lon="4.92784">
        <ele>206</ele>
        <time>2026-08-13T10:50:49+00:00</time>
      </trkpt>
      <trkpt lat="50.24245" lon="4.928">
        <ele>209</ele>
        <time>2026-08-13T10:50:52+00:00</time>
      </trkpt>
      <trkpt lat="50.24243" lon="4.92816">
        <ele>211</ele>
        <time>2026-08-13T10:50:55+00:00</time>
      </trkpt>
      <trkpt lat="50.24245" lon="4.92843">
        <ele>214</ele>
        <time>2026-08-13T10:50:58+00:00</time>
      </trkpt>
      <trkpt lat="50.24241" lon="4.92881">
        <ele>219</ele>
        <time>2026-08-13T10:51:01+00:00</time>
      </trkpt>
      <trkpt lat="50.24246" lon="4.9291">
        <ele>224</ele>
        <time>2026-08-13T10:51:04+00:00</time>
      </trkpt>
      <trkpt lat="50.24248" lon="4.92938">
        <ele>227</ele>
        <time>2026-08-13T10:51:07+00:00</time>
      </trkpt>
      <trkpt lat="50.24242" lon="4.92982">
        <ele>235</ele>
        <time>2026-08-13T10:51:10+00:00</time>
      </trkpt>
      <trkpt lat="50.24238" lon="4.93021">
        <ele>243</ele>
        <time>2026-08-13T10:51:13+00:00</time>
      </trkpt>
      <trkpt lat="50.24223" lon="4.93064">
        <ele>249</ele>
        <time>2026-08-13T10:51:16+00:00</time>
      </trkpt>
      <trkpt lat="50.24218" lon="4.9307">
        <ele>250</ele>
        <time>2026-08-13T10:51:19+00:00</time>
      </trkpt>
      <trkpt lat="50.24211" lon="4.93077">
        <ele>250</ele>
        <time>2026-08-13T10:51:22+00:00</time>
      </trkpt>
      <trkpt lat="50.24197" lon="4.93079">
        <ele>249</ele>
        <time>2026-08-13T10:51:25+00:00</time>
      </trkpt>
      <trkpt lat="50.24184" lon="4.93084">
        <ele>251</ele>
        <time>2026-08-13T10:51:28+00:00</time>
      </trkpt>
      <trkpt lat="50.24169" lon="4.93077">
        <ele>249</ele>
        <time>2026-08-13T10:51:31+00:00</time>
      </trkpt>
      <trkpt lat="50.2416" lon="4.93034">
        <ele>245</ele>
        <time>2026-08-13T10:51:34+00:00</time>
      </trkpt>
      <trkpt lat="50.24151" lon="4.9299">
        <ele>241</ele>
        <time>2026-08-13T10:51:37+00:00</time>
      </trkpt>
      <trkpt lat="50.24141" lon="4.92943">
        <ele>234</ele>
        <time>2026-08-13T10:51:40+00:00</time>
      </trkpt>
      <trkpt lat="50.24137" lon="4.9292">
        <ele>232</ele>
        <time>2026-08-13T10:51:43+00:00</time>
      </trkpt>
      <trkpt lat="50.24139" lon="4.92901">
        <ele>231</ele>
        <time>2026-08-13T10:51:46+00:00</time>
      </trkpt>
      <trkpt lat="50.24143" lon="4.9288">
        <ele>231</ele>
        <time>2026-08-13T10:51:49+00:00</time>
      </trkpt>
      <trkpt lat="50.24145" lon="4.92859">
        <ele>231</ele>
        <time>2026-08-13T10:51:52+00:00</time>
      </trkpt>
      <trkpt lat="50.24143" lon="4.92845">
        <ele>232</ele>
        <time>2026-08-13T10:51:55+00:00</time>
      </trkpt>
      <trkpt lat="50.24135" lon="4.92814">
        <ele>231</ele>
        <time>2026-08-13T10:51:58+00:00</time>
      </trkpt>
      <trkpt lat="50.24134" lon="4.92803">
        <ele>231</ele>
        <time>2026-08-13T10:52:01+00:00</time>
      </trkpt>
      <trkpt lat="50.24125" lon="4.9279">
        <ele>229</ele>
        <time>2026-08-13T10:52:04+00:00</time>
      </trkpt>
      <trkpt lat="50.24115" lon="4.92786">
        <ele>227</ele>
        <time>2026-08-13T10:52:07+00:00</time>
      </trkpt>
      <trkpt lat="50.24113" lon="4.92781">
        <ele>227</ele>
        <time>2026-08-13T10:52:10+00:00</time>
      </trkpt>
      <trkpt lat="50.24115" lon="4.92773">
        <ele>227</ele>
        <time>2026-08-13T10:52:13+00:00</time>
      </trkpt>
      <trkpt lat="50.24119" lon="4.92765">
        <ele>226</ele>
        <time>2026-08-13T10:52:16+00:00</time>
      </trkpt>
      <trkpt lat="50.24119" lon="4.92742">
        <ele>223</ele>
        <time>2026-08-13T10:52:19+00:00</time>
      </trkpt>
      <trkpt lat="50.24117" lon="4.92724">
        <ele>221</ele>
        <time>2026-08-13T10:52:22+00:00</time>
      </trkpt>
      <trkpt lat="50.24112" lon="4.92706">
        <ele>219</ele>
        <time>2026-08-13T10:52:25+00:00</time>
      </trkpt>
      <trkpt lat="50.24108" lon="4.92701">
        <ele>219</ele>
        <time>2026-08-13T10:52:28+00:00</time>
      </trkpt>
      <trkpt lat="50.24105" lon="4.92706">
        <ele>219</ele>
        <time>2026-08-13T10:52:31+00:00</time>
      </trkpt>
      <trkpt lat="50.24103" lon="4.92716">
        <ele>220</ele>
        <time>2026-08-13T10:52:34+00:00</time>
      </trkpt>
      <trkpt lat="50.24099" lon="4.9272">
        <ele>219</ele>
        <time>2026-08-13T10:52:37+00:00</time>
      </trkpt>
      <trkpt lat="50.24092" lon="4.92723">
        <ele>220</ele>
        <time>2026-08-13T10:52:40+00:00</time>
      </trkpt>
      <trkpt lat="50.2409" lon="4.92725">
        <ele>220</ele>
        <time>2026-08-13T10:52:43+00:00</time>
      </trkpt>
      <trkpt lat="50.24089" lon="4.92728">
        <ele>216</ele>
        <time>2026-08-13T10:52:46+00:00</time>
      </trkpt>
      <trkpt lat="50.24093" lon="4.92765">
        <ele>218</ele>
        <time>2026-08-13T10:52:49+00:00</time>
      </trkpt>
      <trkpt lat="50.24092" lon="4.9278">
        <ele>223</ele>
        <time>2026-08-13T10:52:52+00:00</time>
      </trkpt>
      <trkpt lat="50.24089" lon="4.92794">
        <ele>218</ele>
        <time>2026-08-13T10:52:55+00:00</time>
      </trkpt>
      <trkpt lat="50.24092" lon="4.92805">
        <ele>225</ele>
        <time>2026-08-13T10:52:58+00:00</time>
      </trkpt>
      <trkpt lat="50.24092" lon="4.92815">
        <ele>224</ele>
        <time>2026-08-13T10:53:01+00:00</time>
      </trkpt>
      <trkpt lat="50.24091" lon="4.9282">
        <ele>218</ele>
        <time>2026-08-13T10:53:04+00:00</time>
      </trkpt>
      <trkpt lat="50.24085" lon="4.92823">
        <ele>221</ele>
        <time>2026-08-13T10:53:07+00:00</time>
      </trkpt>
      <trkpt lat="50.24072" lon="4.92824">
        <ele>218</ele>
        <time>2026-08-13T10:53:10+00:00</time>
      </trkpt>
      <trkpt lat="50.24044" lon="4.92814">
        <ele>218</ele>
        <time>2026-08-13T10:53:13+00:00</time>
      </trkpt>
      <trkpt lat="50.24039" lon="4.92818">
        <ele>217</ele>
        <time>2026-08-13T10:53:16+00:00</time>
      </trkpt>
      <trkpt lat="50.24037" lon="4.92823">
        <ele>217</ele>
        <time>2026-08-13T10:53:19+00:00</time>
      </trkpt>
      <trkpt lat="50.24017" lon="4.92851">
        <ele>218</ele>
        <time>2026-08-13T10:53:22+00:00</time>
      </trkpt>
      <trkpt lat="50.23997" lon="4.9288">
        <ele>217</ele>
        <time>2026-08-13T10:53:25+00:00</time>
      </trkpt>
      <trkpt lat="50.23972" lon="4.92915">
        <ele>215</ele>
        <time>2026-08-13T10:53:28+00:00</time>
      </trkpt>
      <trkpt lat="50.23958" lon="4.92971">
        <ele>212</ele>
        <time>2026-08-13T10:53:31+00:00</time>
      </trkpt>
      <trkpt lat="50.23963" lon="4.93034">
        <ele>211</ele>
        <time>2026-08-13T10:53:34+00:00</time>
      </trkpt>
      <trkpt lat="50.23954" lon="4.93065">
        <ele>210</ele>
        <time>2026-08-13T10:53:37+00:00</time>
      </trkpt>
      <trkpt lat="50.23945" lon="4.93098">
        <ele>209</ele>
        <time>2026-08-13T10:53:40+00:00</time>
      </trkpt>
      <trkpt lat="50.23923" lon="4.93084">
        <ele>208</ele>
        <time>2026-08-13T10:53:43+00:00</time>
      </trkpt>
      <trkpt lat="50.23921" lon="4.93047">
        <ele>207</ele>
        <time>2026-08-13T10:53:46+00:00</time>
      </trkpt>
      <trkpt lat="50.23919" lon="4.93001">
        <ele>204</ele>
        <time>2026-08-13T10:53:49+00:00</time>
      </trkpt>
      <trkpt lat="50.23925" lon="4.92953">
        <ele>202</ele>
        <time>2026-08-13T10:53:52+00:00</time>
      </trkpt>
      <trkpt lat="50.23931" lon="4.92905">
        <ele>201</ele>
        <time>2026-08-13T10:53:55+00:00</time>
      </trkpt>
      <trkpt lat="50.23941" lon="4.92827">
        <ele>194</ele>
        <time>2026-08-13T10:53:58+00:00</time>
      </trkpt>
      <trkpt lat="50.23937" lon="4.9279">
        <ele>191</ele>
        <time>2026-08-13T10:54:01+00:00</time>
      </trkpt>
      <trkpt lat="50.23932" lon="4.92742">
        <ele>189</ele>
        <time>2026-08-13T10:54:04+00:00</time>
      </trkpt>
      <trkpt lat="50.23932" lon="4.92736">
        <ele>189</ele>
        <time>2026-08-13T10:54:07+00:00</time>
      </trkpt>
      <trkpt lat="50.23937" lon="4.92697">
        <ele>186</ele>
        <time>2026-08-13T10:54:10+00:00</time>
      </trkpt>
      <trkpt lat="50.23944" lon="4.92634">
        <ele>184</ele>
        <time>2026-08-13T10:54:13+00:00</time>
      </trkpt>
      <trkpt lat="50.23951" lon="4.92604">
        <ele>183</ele>
        <time>2026-08-13T10:54:16+00:00</time>
      </trkpt>
      <trkpt lat="50.2396" lon="4.92582">
        <ele>182</ele>
        <time>2026-08-13T10:54:19+00:00</time>
      </trkpt>
      <trkpt lat="50.23965" lon="4.92567">
        <ele>181</ele>
        <time>2026-08-13T10:54:22+00:00</time>
      </trkpt>
      <trkpt lat="50.23968" lon="4.92527">
        <ele>176</ele>
        <time>2026-08-13T10:54:25+00:00</time>
      </trkpt>
      <trkpt lat="50.23978" lon="4.92485">
        <ele>175</ele>
        <time>2026-08-13T10:54:28+00:00</time>
      </trkpt>
      <trkpt lat="50.23987" lon="4.92454">
        <ele>174</ele>
        <time>2026-08-13T10:54:31+00:00</time>
      </trkpt>
      <trkpt lat="50.23996" lon="4.92442">
        <ele>174</ele>
        <time>2026-08-13T10:54:34+00:00</time>
      </trkpt>
      <trkpt lat="50.24018" lon="4.92426">
        <ele>170</ele>
        <time>2026-08-13T10:54:37+00:00</time>
      </trkpt>
      <trkpt lat="50.24025" lon="4.92419">
        <ele>167</ele>
        <time>2026-08-13T10:54:40+00:00</time>
      </trkpt>
      <trkpt lat="50.24041" lon="4.92396">
        <ele>164</ele>
        <time>2026-08-13T10:54:43+00:00</time>
      </trkpt>
      <trkpt lat="50.24049" lon="4.92376">
        <ele>165</ele>
        <time>2026-08-13T10:54:46+00:00</time>
      </trkpt>
      <trkpt lat="50.24053" lon="4.92359">
        <ele>165</ele>
        <time>2026-08-13T10:54:49+00:00</time>
      </trkpt>
      <trkpt lat="50.24046" lon="4.92324">
        <ele>165</ele>
        <time>2026-08-13T10:54:52+00:00</time>
      </trkpt>
      <trkpt lat="50.24044" lon="4.92281">
        <ele>165</ele>
        <time>2026-08-13T10:54:55+00:00</time>
      </trkpt>
      <trkpt lat="50.2404" lon="4.92261">
        <ele>165</ele>
        <time>2026-08-13T10:54:58+00:00</time>
      </trkpt>
      <trkpt lat="50.24024" lon="4.92248">
        <ele>165</ele>
        <time>2026-08-13T10:55:01+00:00</time>
      </trkpt>
      <trkpt lat="50.24005" lon="4.92233">
        <ele>164</ele>
        <time>2026-08-13T10:55:04+00:00</time>
      </trkpt>
      <trkpt lat="50.23991" lon="4.92245">
        <ele>165</ele>
        <time>2026-08-13T10:55:07+00:00</time>
      </trkpt>
      <trkpt lat="50.23981" lon="4.9227">
        <ele>166</ele>
        <time>2026-08-13T10:55:10+00:00</time>
      </trkpt>
      <trkpt lat="50.23966" lon="4.92307">
        <ele>165</ele>
        <time>2026-08-13T10:55:13+00:00</time>
      </trkpt>
      <trkpt lat="50.23955" lon="4.9234">
        <ele>165</ele>
        <time>2026-08-13T10:55:16+00:00</time>
      </trkpt>
      <trkpt lat="50.23942" lon="4.92382">
        <ele>165</ele>
        <time>2026-08-13T10:55:19+00:00</time>
      </trkpt>
      <trkpt lat="50.23929" lon="4.92433">
        <ele>183</ele>
        <time>2026-08-13T10:55:22+00:00</time>
      </trkpt>
      <trkpt lat="50.23922" lon="4.92472">
        <ele>184</ele>
        <time>2026-08-13T10:55:25+00:00</time>
      </trkpt>
      <trkpt lat="50.23913" lon="4.92528">
        <ele>183</ele>
        <time>2026-08-13T10:55:28+00:00</time>
      </trkpt>
      <trkpt lat="50.23904" lon="4.92566">
        <ele>182</ele>
        <time>2026-08-13T10:55:31+00:00</time>
      </trkpt>
      <trkpt lat="50.2389" lon="4.92623">
        <ele>183</ele>
        <time>2026-08-13T10:55:34+00:00</time>
      </trkpt>
      <trkpt lat="50.23879" lon="4.92658">
        <ele>184</ele>
        <time>2026-08-13T10:55:37+00:00</time>
      </trkpt>
      <trkpt lat="50.23875" lon="4.92677">
        <ele>185</ele>
        <time>2026-08-13T10:55:40+00:00</time>
      </trkpt>
      <trkpt lat="50.23865" lon="4.92718">
        <ele>188</ele>
        <time>2026-08-13T10:55:43+00:00</time>
      </trkpt>
      <trkpt lat="50.23855" lon="4.92759">
        <ele>193</ele>
        <time>2026-08-13T10:55:46+00:00</time>
      </trkpt>
      <trkpt lat="50.23838" lon="4.9283">
        <ele>198</ele>
        <time>2026-08-13T10:55:49+00:00</time>
      </trkpt>
      <trkpt lat="50.23834" lon="4.92874">
        <ele>199</ele>
        <time>2026-08-13T10:55:52+00:00</time>
      </trkpt>
      <trkpt lat="50.2383" lon="4.92904">
        <ele>201</ele>
        <time>2026-08-13T10:55:55+00:00</time>
      </trkpt>
      <trkpt lat="50.23825" lon="4.92921">
        <ele>202</ele>
        <time>2026-08-13T10:55:58+00:00</time>
      </trkpt>
      <trkpt lat="50.23815" lon="4.92946">
        <ele>203</ele>
        <time>2026-08-13T10:56:01+00:00</time>
      </trkpt>
      <trkpt lat="50.2381" lon="4.92962">
        <ele>205</ele>
        <time>2026-08-13T10:56:04+00:00</time>
      </trkpt>
      <trkpt lat="50.23801" lon="4.92996">
        <ele>207</ele>
        <time>2026-08-13T10:56:07+00:00</time>
      </trkpt>
      <trkpt lat="50.23786" lon="4.93054">
        <ele>213</ele>
        <time>2026-08-13T10:56:10+00:00</time>
      </trkpt>
      <trkpt lat="50.23775" lon="4.93086">
        <ele>215</ele>
        <time>2026-08-13T10:56:13+00:00</time>
      </trkpt>
      <trkpt lat="50.23766" lon="4.93129">
        <ele>217</ele>
        <time>2026-08-13T10:56:16+00:00</time>
      </trkpt>
      <trkpt lat="50.23759" lon="4.93156">
        <ele>219</ele>
        <time>2026-08-13T10:56:19+00:00</time>
      </trkpt>
      <trkpt lat="50.23747" lon="4.93187">
        <ele>221</ele>
        <time>2026-08-13T10:56:22+00:00</time>
      </trkpt>
      <trkpt lat="50.23736" lon="4.93209">
        <ele>223</ele>
        <time>2026-08-13T10:56:25+00:00</time>
      </trkpt>
      <trkpt lat="50.23713" lon="4.93247">
        <ele>226</ele>
        <time>2026-08-13T10:56:28+00:00</time>
      </trkpt>
      <trkpt lat="50.23698" lon="4.93276">
        <ele>230</ele>
        <time>2026-08-13T10:56:31+00:00</time>
      </trkpt>
      <trkpt lat="50.2368" lon="4.93311">
        <ele>234</ele>
        <time>2026-08-13T10:56:34+00:00</time>
      </trkpt>
      <trkpt lat="50.23659" lon="4.93348">
        <ele>237</ele>
        <time>2026-08-13T10:56:37+00:00</time>
      </trkpt>
      <trkpt lat="50.23643" lon="4.9337">
        <ele>240</ele>
        <time>2026-08-13T10:56:40+00:00</time>
      </trkpt>
      <trkpt lat="50.23608" lon="4.93392">
        <ele>242</ele>
        <time>2026-08-13T10:56:43+00:00</time>
      </trkpt>
      <trkpt lat="50.23593" lon="4.93408">
        <ele>243</ele>
        <time>2026-08-13T10:56:46+00:00</time>
      </trkpt>
      <trkpt lat="50.23599" lon="4.93437">
        <ele>244</ele>
        <time>2026-08-13T10:56:49+00:00</time>
      </trkpt>
      <trkpt lat="50.23604" lon="4.93471">
        <ele>245</ele>
        <time>2026-08-13T10:56:52+00:00</time>
      </trkpt>
      <trkpt lat="50.23609" lon="4.93507">
        <ele>246</ele>
        <time>2026-08-13T10:56:55+00:00</time>
      </trkpt>
      <trkpt lat="50.23613" lon="4.93553">
        <ele>247</ele>
        <time>2026-08-13T10:56:58+00:00</time>
      </trkpt>
      <trkpt lat="50.23617" lon="4.936">
        <ele>248</ele>
        <time>2026-08-13T10:57:01+00:00</time>
      </trkpt>
      <trkpt lat="50.23623" lon="4.93659">
        <ele>248</ele>
        <time>2026-08-13T10:57:04+00:00</time>
      </trkpt>
      <trkpt lat="50.23628" lon="4.93708">
        <ele>251</ele>
        <time>2026-08-13T10:57:07+00:00</time>
      </trkpt>
      <trkpt lat="50.23643" lon="4.93768">
        <ele>252</ele>
        <time>2026-08-13T10:57:10+00:00</time>
      </trkpt>
      <trkpt lat="50.2365" lon="4.93801">
        <ele>254</ele>
        <time>2026-08-13T10:57:13+00:00</time>
      </trkpt>
      <trkpt lat="50.23656" lon="4.93835">
        <ele>254</ele>
        <time>2026-08-13T10:57:16+00:00</time>
      </trkpt>
      <trkpt lat="50.23657" lon="4.93868">
        <ele>254</ele>
        <time>2026-08-13T10:57:19+00:00</time>
      </trkpt>
      <trkpt lat="50.23651" lon="4.93866">
        <ele>254</ele>
        <time>2026-08-13T10:57:22+00:00</time>
      </trkpt>
      <trkpt lat="50.23632" lon="4.93872">
        <ele>254</ele>
        <time>2026-08-13T10:57:25+00:00</time>
      </trkpt>
      <trkpt lat="50.2361" lon="4.93879">
        <ele>253</ele>
        <time>2026-08-13T10:57:28+00:00</time>
      </trkpt>
      <trkpt lat="50.2361" lon="4.9385">
        <ele>253</ele>
        <time>2026-08-13T10:57:31+00:00</time>
      </trkpt>
      <trkpt lat="50.23593" lon="4.93849">
        <ele>250</ele>
        <time>2026-08-13T10:57:34+00:00</time>
      </trkpt>
      <trkpt lat="50.23586" lon="4.93846">
        <ele>250</ele>
        <time>2026-08-13T10:57:37+00:00</time>
      </trkpt>
      <trkpt lat="50.23559" lon="4.93844">
        <ele>248</ele>
        <time>2026-08-13T10:57:40+00:00</time>
      </trkpt>
      <trkpt lat="50.23535" lon="4.93838">
        <ele>246</ele>
        <time>2026-08-13T10:57:43+00:00</time>
      </trkpt>
      <trkpt lat="50.23536" lon="4.93827">
        <ele>246</ele>
        <time>2026-08-13T10:57:46+00:00</time>
      </trkpt>
      <trkpt lat="50.23516" lon="4.9382">
        <ele>244</ele>
        <time>2026-08-13T10:57:49+00:00</time>
      </trkpt>
      <trkpt lat="50.23493" lon="4.93812">
        <ele>243</ele>
        <time>2026-08-13T10:57:52+00:00</time>
      </trkpt>
      <trkpt lat="50.23476" lon="4.93808">
        <ele>241</ele>
        <time>2026-08-13T10:57:55+00:00</time>
      </trkpt>
      <trkpt lat="50.23477" lon="4.93768">
        <ele>239</ele>
        <time>2026-08-13T10:57:58+00:00</time>
      </trkpt>
      <trkpt lat="50.23451" lon="4.93766">
        <ele>238</ele>
        <time>2026-08-13T10:58:01+00:00</time>
      </trkpt>
      <trkpt lat="50.2341" lon="4.93763">
        <ele>236</ele>
        <time>2026-08-13T10:58:04+00:00</time>
      </trkpt>
      <trkpt lat="50.23382" lon="4.93756">
        <ele>234</ele>
        <time>2026-08-13T10:58:07+00:00</time>
      </trkpt>
      <trkpt lat="50.23382" lon="4.93735">
        <ele>233</ele>
        <time>2026-08-13T10:58:10+00:00</time>
      </trkpt>
      <trkpt lat="50.23378" lon="4.93728">
        <ele>232</ele>
        <time>2026-08-13T10:58:13+00:00</time>
      </trkpt>
      <trkpt lat="50.23371" lon="4.93728">
        <ele>232</ele>
        <time>2026-08-13T10:58:16+00:00</time>
      </trkpt>
      <trkpt lat="50.2334" lon="4.93723">
        <ele>231</ele>
        <time>2026-08-13T10:58:19+00:00</time>
      </trkpt>
      <trkpt lat="50.23309" lon="4.93717">
        <ele>229</ele>
        <time>2026-08-13T10:58:22+00:00</time>
      </trkpt>
      <trkpt lat="50.23278" lon="4.93712">
        <ele>226</ele>
        <time>2026-08-13T10:58:25+00:00</time>
      </trkpt>
      <trkpt lat="50.23243" lon="4.93706">
        <ele>224</ele>
        <time>2026-08-13T10:58:28+00:00</time>
      </trkpt>
      <trkpt lat="50.23216" lon="4.93757">
        <ele>224</ele>
        <time>2026-08-13T10:58:31+00:00</time>
      </trkpt>
      <trkpt lat="50.23195" lon="4.93793">
        <ele>224</ele>
        <time>2026-08-13T10:58:34+00:00</time>
      </trkpt>
      <trkpt lat="50.23174" lon="4.9383">
        <ele>223</ele>
        <time>2026-08-13T10:58:37+00:00</time>
      </trkpt>
      <trkpt lat="50.23137" lon="4.93893">
        <ele>222</ele>
        <time>2026-08-13T10:58:40+00:00</time>
      </trkpt>
      <trkpt lat="50.23114" lon="4.9393">
        <ele>220</ele>
        <time>2026-08-13T10:58:43+00:00</time>
      </trkpt>
      <trkpt lat="50.23098" lon="4.93959">
        <ele>219</ele>
        <time>2026-08-13T10:58:46+00:00</time>
      </trkpt>
      <trkpt lat="50.23092" lon="4.93988">
        <ele>218</ele>
        <time>2026-08-13T10:58:49+00:00</time>
      </trkpt>
      <trkpt lat="50.23092" lon="4.94005">
        <ele>217</ele>
        <time>2026-08-13T10:58:52+00:00</time>
      </trkpt>
      <trkpt lat="50.23096" lon="4.94041">
        <ele>217</ele>
        <time>2026-08-13T10:58:55+00:00</time>
      </trkpt>
      <trkpt lat="50.23096" lon="4.94053">
        <ele>215</ele>
        <time>2026-08-13T10:58:58+00:00</time>
      </trkpt>
      <trkpt lat="50.23093" lon="4.94067">
        <ele>216</ele>
        <time>2026-08-13T10:59:01+00:00</time>
      </trkpt>
      <trkpt lat="50.2309" lon="4.94078">
        <ele>217</ele>
        <time>2026-08-13T10:59:04+00:00</time>
      </trkpt>
      <trkpt lat="50.2308" lon="4.94099">
        <ele>216</ele>
        <time>2026-08-13T10:59:07+00:00</time>
      </trkpt>
      <trkpt lat="50.23058" lon="4.94134">
        <ele>217</ele>
        <time>2026-08-13T10:59:10+00:00</time>
      </trkpt>
      <trkpt lat="50.23036" lon="4.9417">
        <ele>218</ele>
        <time>2026-08-13T10:59:13+00:00</time>
      </trkpt>
      <trkpt lat="50.23014" lon="4.94205">
        <ele>219</ele>
        <time>2026-08-13T10:59:16+00:00</time>
      </trkpt>
      <trkpt lat="50.22992" lon="4.9424">
        <ele>220</ele>
        <time>2026-08-13T10:59:19+00:00</time>
      </trkpt>
      <trkpt lat="50.22967" lon="4.94281">
        <ele>223</ele>
        <time>2026-08-13T10:59:22+00:00</time>
      </trkpt>
      <trkpt lat="50.22949" lon="4.94306">
        <ele>226</ele>
        <time>2026-08-13T10:59:25+00:00</time>
      </trkpt>
      <trkpt lat="50.22924" lon="4.94333">
        <ele>228</ele>
        <time>2026-08-13T10:59:28+00:00</time>
      </trkpt>
      <trkpt lat="50.22898" lon="4.9436">
        <ele>229</ele>
        <time>2026-08-13T10:59:31+00:00</time>
      </trkpt>
      <trkpt lat="50.2286" lon="4.94401">
        <ele>231</ele>
        <time>2026-08-13T10:59:34+00:00</time>
      </trkpt>
      <trkpt lat="50.22852" lon="4.94411">
        <ele>231</ele>
        <time>2026-08-13T10:59:37+00:00</time>
      </trkpt>
      <trkpt lat="50.2284" lon="4.94431">
        <ele>231</ele>
        <time>2026-08-13T10:59:40+00:00</time>
      </trkpt>
      <trkpt lat="50.22832" lon="4.94447">
        <ele>231</ele>
        <time>2026-08-13T10:59:43+00:00</time>
      </trkpt>
      <trkpt lat="50.22811" lon="4.94454">
        <ele>231</ele>
        <time>2026-08-13T10:59:46+00:00</time>
      </trkpt>
      <trkpt lat="50.22778" lon="4.94465">
        <ele>230</ele>
        <time>2026-08-13T10:59:49+00:00</time>
      </trkpt>
      <trkpt lat="50.22755" lon="4.94468">
        <ele>228</ele>
        <time>2026-08-13T10:59:52+00:00</time>
      </trkpt>
      <trkpt lat="50.2273" lon="4.94476">
        <ele>226</ele>
        <time>2026-08-13T10:59:55+00:00</time>
      </trkpt>
      <trkpt lat="50.22695" lon="4.94488">
        <ele>222</ele>
        <time>2026-08-13T10:59:58+00:00</time>
      </trkpt>
      <trkpt lat="50.22672" lon="4.94502">
        <ele>220</ele>
        <time>2026-08-13T11:00:01+00:00</time>
      </trkpt>
      <trkpt lat="50.22648" lon="4.94499">
        <ele>217</ele>
        <time>2026-08-13T11:00:04+00:00</time>
      </trkpt>
      <trkpt lat="50.2262" lon="4.94495">
        <ele>214</ele>
        <time>2026-08-13T11:00:07+00:00</time>
      </trkpt>
      <trkpt lat="50.22594" lon="4.94497">
        <ele>210</ele>
        <time>2026-08-13T11:00:10+00:00</time>
      </trkpt>
      <trkpt lat="50.22555" lon="4.945">
        <ele>203</ele>
        <time>2026-08-13T11:00:13+00:00</time>
      </trkpt>
      <trkpt lat="50.22524" lon="4.94501">
        <ele>200</ele>
        <time>2026-08-13T11:00:16+00:00</time>
      </trkpt>
      <trkpt lat="50.22492" lon="4.94502">
        <ele>197</ele>
        <time>2026-08-13T11:00:19+00:00</time>
      </trkpt>
      <trkpt lat="50.22439" lon="4.94504">
        <ele>194</ele>
        <time>2026-08-13T11:00:22+00:00</time>
      </trkpt>
      <trkpt lat="50.22412" lon="4.94505">
        <ele>197</ele>
        <time>2026-08-13T11:00:25+00:00</time>
      </trkpt>
      <trkpt lat="50.22367" lon="4.94508">
        <ele>201</ele>
        <time>2026-08-13T11:00:28+00:00</time>
      </trkpt>
      <trkpt lat="50.22349" lon="4.94505">
        <ele>202</ele>
        <time>2026-08-13T11:00:31+00:00</time>
      </trkpt>
      <trkpt lat="50.22314" lon="4.94486">
        <ele>207</ele>
        <time>2026-08-13T11:00:34+00:00</time>
      </trkpt>
      <trkpt lat="50.22288" lon="4.94474">
        <ele>211</ele>
        <time>2026-08-13T11:00:37+00:00</time>
      </trkpt>
      <trkpt lat="50.22283" lon="4.94476">
        <ele>211</ele>
        <time>2026-08-13T11:00:40+00:00</time>
      </trkpt>
      <trkpt lat="50.22262" lon="4.94469">
        <ele>211</ele>
        <time>2026-08-13T11:00:43+00:00</time>
      </trkpt>
      <trkpt lat="50.2224" lon="4.94454">
        <ele>211</ele>
        <time>2026-08-13T11:00:46+00:00</time>
      </trkpt>
      <trkpt lat="50.22211" lon="4.94449">
        <ele>209</ele>
        <time>2026-08-13T11:00:49+00:00</time>
      </trkpt>
      <trkpt lat="50.22183" lon="4.94437">
        <ele>203</ele>
        <time>2026-08-13T11:00:52+00:00</time>
      </trkpt>
      <trkpt lat="50.22162" lon="4.94438">
        <ele>200</ele>
        <time>2026-08-13T11:00:55+00:00</time>
      </trkpt>
      <trkpt lat="50.22123" lon="4.9441">
        <ele>198</ele>
        <time>2026-08-13T11:00:58+00:00</time>
      </trkpt>
      <trkpt lat="50.2211" lon="4.94403">
        <ele>199</ele>
        <time>2026-08-13T11:01:01+00:00</time>
      </trkpt>
      <trkpt lat="50.22098" lon="4.94411">
        <ele>200</ele>
        <time>2026-08-13T11:01:04+00:00</time>
      </trkpt>
      <trkpt lat="50.22097" lon="4.9441">
        <ele>197</ele>
        <time>2026-08-13T11:01:07+00:00</time>
      </trkpt>
      <trkpt lat="50.22098" lon="4.94411">
        <ele>197</ele>
        <time>2026-08-13T11:01:10+00:00</time>
      </trkpt>
      <trkpt lat="50.22088" lon="4.94369">
        <ele>200</ele>
        <time>2026-08-13T11:01:13+00:00</time>
      </trkpt>
      <trkpt lat="50.22078" lon="4.94327">
        <ele>200</ele>
        <time>2026-08-13T11:01:16+00:00</time>
      </trkpt>
      <trkpt lat="50.22067" lon="4.94281">
        <ele>200</ele>
        <time>2026-08-13T11:01:19+00:00</time>
      </trkpt>
      <trkpt lat="50.22052" lon="4.94244">
        <ele>199</ele>
        <time>2026-08-13T11:01:22+00:00</time>
      </trkpt>
      <trkpt lat="50.22022" lon="4.94218">
        <ele>197</ele>
        <time>2026-08-13T11:01:25+00:00</time>
      </trkpt>
      <trkpt lat="50.21998" lon="4.942">
        <ele>194</ele>
        <time>2026-08-13T11:01:28+00:00</time>
      </trkpt>
      <trkpt lat="50.21959" lon="4.94171">
        <ele>185</ele>
        <time>2026-08-13T11:01:31+00:00</time>
      </trkpt>
      <trkpt lat="50.21942" lon="4.9415">
        <ele>185</ele>
        <time>2026-08-13T11:01:34+00:00</time>
      </trkpt>
      <trkpt lat="50.21925" lon="4.94128">
        <ele>183</ele>
        <time>2026-08-13T11:01:37+00:00</time>
      </trkpt>
      <trkpt lat="50.21907" lon="4.94107">
        <ele>180</ele>
        <time>2026-08-13T11:01:40+00:00</time>
      </trkpt>
      <trkpt lat="50.21889" lon="4.94086">
        <ele>175</ele>
        <time>2026-08-13T11:01:43+00:00</time>
      </trkpt>
      <trkpt lat="50.21863" lon="4.94045">
        <ele>172</ele>
        <time>2026-08-13T11:01:46+00:00</time>
      </trkpt>
      <trkpt lat="50.21842" lon="4.94">
        <ele>172</ele>
        <time>2026-08-13T11:01:49+00:00</time>
      </trkpt>
      <trkpt lat="50.21831" lon="4.93951">
        <ele>172</ele>
        <time>2026-08-13T11:01:52+00:00</time>
      </trkpt>
      <trkpt lat="50.21828" lon="4.93887">
        <ele>173</ele>
        <time>2026-08-13T11:01:55+00:00</time>
      </trkpt>
      <trkpt lat="50.21824" lon="4.93857">
        <ele>173</ele>
        <time>2026-08-13T11:01:58+00:00</time>
      </trkpt>
      <trkpt lat="50.21815" lon="4.93822">
        <ele>173</ele>
        <time>2026-08-13T11:02:01+00:00</time>
      </trkpt>
      <trkpt lat="50.21802" lon="4.93775">
        <ele>172</ele>
        <time>2026-08-13T11:02:04+00:00</time>
      </trkpt>
      <trkpt lat="50.21789" lon="4.93747">
        <ele>171</ele>
        <time>2026-08-13T11:02:07+00:00</time>
      </trkpt>
      <trkpt lat="50.21771" lon="4.93722">
        <ele>170</ele>
        <time>2026-08-13T11:02:10+00:00</time>
      </trkpt>
      <trkpt lat="50.2175" lon="4.93692">
        <ele>165</ele>
        <time>2026-08-13T11:02:13+00:00</time>
      </trkpt>
      <trkpt lat="50.21736" lon="4.93665">
        <ele>161</ele>
        <time>2026-08-13T11:02:16+00:00</time>
      </trkpt>
      <trkpt lat="50.21722" lon="4.93636">
        <ele>157</ele>
        <time>2026-08-13T11:02:19+00:00</time>
      </trkpt>
      <trkpt lat="50.21709" lon="4.93573">
        <ele>147</ele>
        <time>2026-08-13T11:02:22+00:00</time>
      </trkpt>
      <trkpt lat="50.21705" lon="4.93528">
        <ele>141</ele>
        <time>2026-08-13T11:02:25+00:00</time>
      </trkpt>
      <trkpt lat="50.21704" lon="4.93504">
        <ele>138</ele>
        <time>2026-08-13T11:02:28+00:00</time>
      </trkpt>
      <trkpt lat="50.21706" lon="4.9348">
        <ele>136</ele>
        <time>2026-08-13T11:02:31+00:00</time>
      </trkpt>
      <trkpt lat="50.21709" lon="4.9346">
        <ele>135</ele>
        <time>2026-08-13T11:02:34+00:00</time>
      </trkpt>
      <trkpt lat="50.21715" lon="4.93439">
        <ele>132</ele>
        <time>2026-08-13T11:02:37+00:00</time>
      </trkpt>
      <trkpt lat="50.21737" lon="4.9339">
        <ele>131</ele>
        <time>2026-08-13T11:02:40+00:00</time>
      </trkpt>
      <trkpt lat="50.21747" lon="4.93347">
        <ele>125</ele>
        <time>2026-08-13T11:02:43+00:00</time>
      </trkpt>
      <trkpt lat="50.2175" lon="4.93313">
        <ele>120</ele>
        <time>2026-08-13T11:02:46+00:00</time>
      </trkpt>
      <trkpt lat="50.21749" lon="4.93286">
        <ele>117</ele>
        <time>2026-08-13T11:02:49+00:00</time>
      </trkpt>
      <trkpt lat="50.21742" lon="4.93263">
        <ele>115</ele>
        <time>2026-08-13T11:02:52+00:00</time>
      </trkpt>
      <trkpt lat="50.21735" lon="4.93247">
        <ele>112</ele>
        <time>2026-08-13T11:02:55+00:00</time>
      </trkpt>
      <trkpt lat="50.21726" lon="4.93243">
        <ele>112</ele>
        <time>2026-08-13T11:02:58+00:00</time>
      </trkpt>
      <trkpt lat="50.21713" lon="4.9325">
        <ele>111</ele>
        <time>2026-08-13T11:03:01+00:00</time>
      </trkpt>
      <trkpt lat="50.21707" lon="4.93257">
        <ele>111</ele>
        <time>2026-08-13T11:03:04+00:00</time>
      </trkpt>
      <trkpt lat="50.21686" lon="4.93277">
        <ele>108</ele>
        <time>2026-08-13T11:03:07+00:00</time>
      </trkpt>
      <trkpt lat="50.21673" lon="4.93284">
        <ele>106</ele>
        <time>2026-08-13T11:03:10+00:00</time>
      </trkpt>
      <trkpt lat="50.21653" lon="4.93283">
        <ele>108</ele>
        <time>2026-08-13T11:03:13+00:00</time>
      </trkpt>
      <trkpt lat="50.21625" lon="4.93281">
        <ele>108</ele>
        <time>2026-08-13T11:03:16+00:00</time>
      </trkpt>
      <trkpt lat="50.21621" lon="4.93303">
        <ele>108</ele>
        <time>2026-08-13T11:03:19+00:00</time>
      </trkpt>
      <trkpt lat="50.21623" lon="4.9331">
        <ele>108</ele>
        <time>2026-08-13T11:03:22+00:00</time>
      </trkpt>
      <trkpt lat="50.21629" lon="4.93306">
        <ele>108</ele>
        <time>2026-08-13T11:03:25+00:00</time>
      </trkpt>
      <trkpt lat="50.21634" lon="4.933">
        <ele>109</ele>
        <time>2026-08-13T11:03:28+00:00</time>
      </trkpt>
      <trkpt lat="50.21638" lon="4.9329">
        <ele>109</ele>
        <time>2026-08-13T11:03:31+00:00</time>
      </trkpt>
      <trkpt lat="50.21649" lon="4.93253">
        <ele>109</ele>
        <time>2026-08-13T11:03:34+00:00</time>
      </trkpt>
      <trkpt lat="50.21665" lon="4.93195">
        <ele>112</ele>
        <time>2026-08-13T11:03:37+00:00</time>
      </trkpt>
      <trkpt lat="50.21668" lon="4.93176">
        <ele>118</ele>
        <time>2026-08-13T11:03:40+00:00</time>
      </trkpt>
      <trkpt lat="50.21667" lon="4.9317">
        <ele>118</ele>
        <time>2026-08-13T11:03:43+00:00</time>
      </trkpt>
      <trkpt lat="50.21665" lon="4.9317">
        <ele>118</ele>
        <time>2026-08-13T11:03:46+00:00</time>
      </trkpt>
      <trkpt lat="50.21651" lon="4.93189">
        <ele>115</ele>
        <time>2026-08-13T11:03:49+00:00</time>
      </trkpt>
      <trkpt lat="50.21659" lon="4.93203">
        <ele>116</ele>
        <time>2026-08-13T11:03:52+00:00</time>
      </trkpt>
      <trkpt lat="50.21656" lon="4.93214">
        <ele>112</ele>
        <time>2026-08-13T11:03:55+00:00</time>
      </trkpt>
      <trkpt lat="50.21672" lon="4.93208">
        <ele>107</ele>
        <time>2026-08-13T11:03:58+00:00</time>
      </trkpt>
      <trkpt lat="50.21687" lon="4.93198">
        <ele>109</ele>
        <time>2026-08-13T11:04:01+00:00</time>
      </trkpt>
      <trkpt lat="50.21698" lon="4.93174">
        <ele>107</ele>
        <time>2026-08-13T11:04:04+00:00</time>
      </trkpt>
      <trkpt lat="50.21711" lon="4.93121">
        <ele>105</ele>
        <time>2026-08-13T11:04:07+00:00</time>
      </trkpt>
      <trkpt lat="50.21721" lon="4.93088">
        <ele>105</ele>
        <time>2026-08-13T11:04:10+00:00</time>
      </trkpt>
      <trkpt lat="50.21732" lon="4.93051">
        <ele>106</ele>
        <time>2026-08-13T11:04:13+00:00</time>
      </trkpt>
      <trkpt lat="50.21759" lon="4.92999">
        <ele>106</ele>
        <time>2026-08-13T11:04:16+00:00</time>
      </trkpt>
      <trkpt lat="50.21779" lon="4.92965">
        <ele>106</ele>
        <time>2026-08-13T11:04:19+00:00</time>
      </trkpt>
      <trkpt lat="50.21799" lon="4.92931">
        <ele>106</ele>
        <time>2026-08-13T11:04:22+00:00</time>
      </trkpt>
      <trkpt lat="50.21822" lon="4.92892">
        <ele>105</ele>
        <time>2026-08-13T11:04:25+00:00</time>
      </trkpt>
      <trkpt lat="50.21826" lon="4.92886">
        <ele>106</ele>
        <time>2026-08-13T11:04:28+00:00</time>
      </trkpt>
      <trkpt lat="50.21834" lon="4.92885">
        <ele>105</ele>
        <time>2026-08-13T11:04:31+00:00</time>
      </trkpt>
      <trkpt lat="50.21851" lon="4.92884">
        <ele>104</ele>
        <time>2026-08-13T11:04:34+00:00</time>
      </trkpt>
      <trkpt lat="50.2187" lon="4.92884">
        <ele>104</ele>
        <time>2026-08-13T11:04:37+00:00</time>
      </trkpt>
      <trkpt lat="50.21882" lon="4.92874">
        <ele>104</ele>
        <time>2026-08-13T11:04:40+00:00</time>
      </trkpt>
      <trkpt lat="50.21895" lon="4.92854">
        <ele>106</ele>
        <time>2026-08-13T11:04:43+00:00</time>
      </trkpt>
      <trkpt lat="50.21909" lon="4.92821">
        <ele>109</ele>
        <time>2026-08-13T11:04:46+00:00</time>
      </trkpt>
      <trkpt lat="50.21914" lon="4.92796">
        <ele>111</ele>
        <time>2026-08-13T11:04:49+00:00</time>
      </trkpt>
      <trkpt lat="50.21915" lon="4.92773">
        <ele>116</ele>
        <time>2026-08-13T11:04:52+00:00</time>
      </trkpt>
      <trkpt lat="50.21917" lon="4.92747">
        <ele>115</ele>
        <time>2026-08-13T11:04:55+00:00</time>
      </trkpt>
      <trkpt lat="50.21915" lon="4.92726">
        <ele>117</ele>
        <time>2026-08-13T11:04:58+00:00</time>
      </trkpt>
      <trkpt lat="50.2191" lon="4.92701">
        <ele>115</ele>
        <time>2026-08-13T11:05:01+00:00</time>
      </trkpt>
      <trkpt lat="50.21905" lon="4.92672">
        <ele>115</ele>
        <time>2026-08-13T11:05:04+00:00</time>
      </trkpt>
      <trkpt lat="50.21889" lon="4.92618">
        <ele>116</ele>
        <time>2026-08-13T11:05:07+00:00</time>
      </trkpt>
      <trkpt lat="50.21874" lon="4.9259">
        <ele>117</ele>
        <time>2026-08-13T11:05:10+00:00</time>
      </trkpt>
      <trkpt lat="50.21841" lon="4.9255">
        <ele>114</ele>
        <time>2026-08-13T11:05:13+00:00</time>
      </trkpt>
      <trkpt lat="50.21847" lon="4.92508">
        <ele>112</ele>
        <time>2026-08-13T11:05:16+00:00</time>
      </trkpt>
      <trkpt lat="50.21849" lon="4.92477">
        <ele>109</ele>
        <time>2026-08-13T11:05:19+00:00</time>
      </trkpt>
      <trkpt lat="50.21847" lon="4.92417">
        <ele>101</ele>
        <time>2026-08-13T11:05:22+00:00</time>
      </trkpt>
      <trkpt lat="50.21843" lon="4.92378">
        <ele>98</ele>
        <time>2026-08-13T11:05:25+00:00</time>
      </trkpt>
      <trkpt lat="50.21841" lon="4.92339">
        <ele>97</ele>
        <time>2026-08-13T11:05:28+00:00</time>
      </trkpt>
      <trkpt lat="50.21838" lon="4.92287">
        <ele>97</ele>
        <time>2026-08-13T11:05:31+00:00</time>
      </trkpt>
      <trkpt lat="50.21838" lon="4.92252">
        <ele>97</ele>
        <time>2026-08-13T11:05:34+00:00</time>
      </trkpt>
      <trkpt lat="50.21838" lon="4.92214">
        <ele>97</ele>
        <time>2026-08-13T11:05:37+00:00</time>
      </trkpt>
      <trkpt lat="50.21825" lon="4.92188">
        <ele>96</ele>
        <time>2026-08-13T11:05:40+00:00</time>
      </trkpt>
      <trkpt lat="50.21807" lon="4.92137">
        <ele>96</ele>
        <time>2026-08-13T11:05:43+00:00</time>
      </trkpt>
      <trkpt lat="50.21789" lon="4.92076">
        <ele>96</ele>
        <time>2026-08-13T11:05:46+00:00</time>
      </trkpt>
      <trkpt lat="50.2178" lon="4.92018">
        <ele>96</ele>
        <time>2026-08-13T11:05:49+00:00</time>
      </trkpt>
      <trkpt lat="50.21777" lon="4.91985">
        <ele>96</ele>
        <time>2026-08-13T11:05:52+00:00</time>
      </trkpt>
      <trkpt lat="50.21774" lon="4.91951">
        <ele>96</ele>
        <time>2026-08-13T11:05:55+00:00</time>
      </trkpt>
      <trkpt lat="50.2177" lon="4.91937">
        <ele>96</ele>
        <time>2026-08-13T11:05:58+00:00</time>
      </trkpt>
      <trkpt lat="50.21772" lon="4.91927">
        <ele>96</ele>
        <time>2026-08-13T11:06:01+00:00</time>
      </trkpt>
      <trkpt lat="50.21788" lon="4.91915">
        <ele>96</ele>
        <time>2026-08-13T11:06:04+00:00</time>
      </trkpt>
      <trkpt lat="50.21809" lon="4.91899">
        <ele>96</ele>
        <time>2026-08-13T11:06:07+00:00</time>
      </trkpt>
      <trkpt lat="50.21811" lon="4.91904">
        <ele>96</ele>
        <time>2026-08-13T11:06:10+00:00</time>
      </trkpt>
      <trkpt lat="50.21817" lon="4.91935">
        <ele>96</ele>
        <time>2026-08-13T11:06:13+00:00</time>
      </trkpt>
      <trkpt lat="50.21823" lon="4.91967">
        <ele>96</ele>
        <time>2026-08-13T11:06:16+00:00</time>
      </trkpt>
      <trkpt lat="50.21829" lon="4.91984">
        <ele>96</ele>
        <time>2026-08-13T11:06:19+00:00</time>
      </trkpt>
      <trkpt lat="50.21846" lon="4.92013">
        <ele>96</ele>
        <time>2026-08-13T11:06:22+00:00</time>
      </trkpt>
      <trkpt lat="50.21855" lon="4.92022">
        <ele>97</ele>
        <time>2026-08-13T11:06:25+00:00</time>
      </trkpt>
      <trkpt lat="50.21867" lon="4.92031">
        <ele>97</ele>
        <time>2026-08-13T11:06:28+00:00</time>
      </trkpt>
      <trkpt lat="50.21875" lon="4.92033">
        <ele>97</ele>
        <time>2026-08-13T11:06:31+00:00</time>
      </trkpt>
      <trkpt lat="50.2188" lon="4.9203">
        <ele>98</ele>
        <time>2026-08-13T11:06:34+00:00</time>
      </trkpt>
      <trkpt lat="50.21893" lon="4.92036">
        <ele>97</ele>
        <time>2026-08-13T11:06:37+00:00</time>
      </trkpt>
      <trkpt lat="50.21901" lon="4.92027">
        <ele>97</ele>
        <time>2026-08-13T11:06:40+00:00</time>
      </trkpt>
      <trkpt lat="50.21902" lon="4.92023">
        <ele>97</ele>
        <time>2026-08-13T11:06:43+00:00</time>
      </trkpt>
      <trkpt lat="50.21902" lon="4.92005">
        <ele>97</ele>
        <time>2026-08-13T11:06:46+00:00</time>
      </trkpt>
      <trkpt lat="50.21913" lon="4.91952">
        <ele>98</ele>
        <time>2026-08-13T11:06:49+00:00</time>
      </trkpt>
      <trkpt lat="50.21919" lon="4.91918">
        <ele>98</ele>
        <time>2026-08-13T11:06:52+00:00</time>
      </trkpt>
      <trkpt lat="50.21926" lon="4.91882">
        <ele>98</ele>
        <time>2026-08-13T11:06:55+00:00</time>
      </trkpt>
      <trkpt lat="50.21938" lon="4.91839">
        <ele>98</ele>
        <time>2026-08-13T11:06:58+00:00</time>
      </trkpt>
      <trkpt lat="50.21949" lon="4.91807">
        <ele>99</ele>
        <time>2026-08-13T11:07:01+00:00</time>
      </trkpt>
      <trkpt lat="50.21961" lon="4.91772">
        <ele>103</ele>
        <time>2026-08-13T11:07:04+00:00</time>
      </trkpt>
      <trkpt lat="50.21973" lon="4.91748">
        <ele>103</ele>
        <time>2026-08-13T11:07:07+00:00</time>
      </trkpt>
      <trkpt lat="50.21977" lon="4.91743">
        <ele>103</ele>
        <time>2026-08-13T11:07:10+00:00</time>
      </trkpt>
      <trkpt lat="50.2199" lon="4.91693">
        <ele>103</ele>
        <time>2026-08-13T11:07:13+00:00</time>
      </trkpt>
      <trkpt lat="50.21996" lon="4.91673">
        <ele>102</ele>
        <time>2026-08-13T11:07:16+00:00</time>
      </trkpt>
      <trkpt lat="50.22005" lon="4.91651">
        <ele>103</ele>
        <time>2026-08-13T11:07:19+00:00</time>
      </trkpt>
      <trkpt lat="50.22015" lon="4.91626">
        <ele>103</ele>
        <time>2026-08-13T11:07:22+00:00</time>
      </trkpt>
      <trkpt lat="50.22025" lon="4.91608">
        <ele>103</ele>
        <time>2026-08-13T11:07:25+00:00</time>
      </trkpt>
      <trkpt lat="50.22043" lon="4.91586">
        <ele>104</ele>
        <time>2026-08-13T11:07:28+00:00</time>
      </trkpt>
      <trkpt lat="50.22075" lon="4.91546">
        <ele>107</ele>
        <time>2026-08-13T11:07:31+00:00</time>
      </trkpt>
      <trkpt lat="50.22099" lon="4.91506">
        <ele>108</ele>
        <time>2026-08-13T11:07:34+00:00</time>
      </trkpt>
      <trkpt lat="50.2211" lon="4.91475">
        <ele>110</ele>
        <time>2026-08-13T11:07:37+00:00</time>
      </trkpt>
      <trkpt lat="50.22123" lon="4.91441">
        <ele>110</ele>
        <time>2026-08-13T11:07:40+00:00</time>
      </trkpt>
      <trkpt lat="50.22125" lon="4.91437">
        <ele>109</ele>
        <time>2026-08-13T11:07:43+00:00</time>
      </trkpt>
      <trkpt lat="50.22137" lon="4.91403">
        <ele>109</ele>
        <time>2026-08-13T11:07:46+00:00</time>
      </trkpt>
      <trkpt lat="50.22157" lon="4.91349">
        <ele>106</ele>
        <time>2026-08-13T11:07:49+00:00</time>
      </trkpt>
      <trkpt lat="50.22167" lon="4.91316">
        <ele>103</ele>
        <time>2026-08-13T11:07:52+00:00</time>
      </trkpt>
      <trkpt lat="50.2218" lon="4.91278">
        <ele>103</ele>
        <time>2026-08-13T11:07:55+00:00</time>
      </trkpt>
      <trkpt lat="50.2219" lon="4.91238">
        <ele>101</ele>
        <time>2026-08-13T11:07:58+00:00</time>
      </trkpt>
      <trkpt lat="50.22208" lon="4.91167">
        <ele>101</ele>
        <time>2026-08-13T11:08:01+00:00</time>
      </trkpt>
      <trkpt lat="50.22218" lon="4.91133">
        <ele>101</ele>
        <time>2026-08-13T11:08:04+00:00</time>
      </trkpt>
      <trkpt lat="50.22231" lon="4.91091">
        <ele>98</ele>
        <time>2026-08-13T11:08:07+00:00</time>
      </trkpt>
      <trkpt lat="50.22237" lon="4.91074">
        <ele>96</ele>
        <time>2026-08-13T11:08:10+00:00</time>
      </trkpt>
      <trkpt lat="50.22243" lon="4.91065">
        <ele>97</ele>
        <time>2026-08-13T11:08:13+00:00</time>
      </trkpt>
      <trkpt lat="50.2225" lon="4.91059">
        <ele>95</ele>
        <time>2026-08-13T11:08:16+00:00</time>
      </trkpt>
      <trkpt lat="50.22258" lon="4.91054">
        <ele>96</ele>
        <time>2026-08-13T11:08:19+00:00</time>
      </trkpt>
      <trkpt lat="50.22263" lon="4.91053">
        <ele>97</ele>
        <time>2026-08-13T11:08:22+00:00</time>
      </trkpt>
      <trkpt lat="50.22272" lon="4.91055">
        <ele>100</ele>
        <time>2026-08-13T11:08:25+00:00</time>
      </trkpt>
      <trkpt lat="50.22283" lon="4.91062">
        <ele>103</ele>
        <time>2026-08-13T11:08:28+00:00</time>
      </trkpt>
      <trkpt lat="50.22295" lon="4.91074">
        <ele>105</ele>
        <time>2026-08-13T11:08:31+00:00</time>
      </trkpt>
      <trkpt lat="50.2231" lon="4.91093">
        <ele>103</ele>
        <time>2026-08-13T11:08:34+00:00</time>
      </trkpt>
      <trkpt lat="50.22331" lon="4.91119">
        <ele>101</ele>
        <time>2026-08-13T11:08:37+00:00</time>
      </trkpt>
      <trkpt lat="50.2235" lon="4.91138">
        <ele>101</ele>
        <time>2026-08-13T11:08:40+00:00</time>
      </trkpt>
      <trkpt lat="50.22366" lon="4.91152">
        <ele>101</ele>
        <time>2026-08-13T11:08:43+00:00</time>
      </trkpt>
      <trkpt lat="50.2238" lon="4.91159">
        <ele>101</ele>
        <time>2026-08-13T11:08:46+00:00</time>
      </trkpt>
      <trkpt lat="50.22375" lon="4.91189">
        <ele>110</ele>
        <time>2026-08-13T11:08:49+00:00</time>
      </trkpt>
      <trkpt lat="50.22369" lon="4.91198">
        <ele>118</ele>
        <time>2026-08-13T11:08:52+00:00</time>
      </trkpt>
      <trkpt lat="50.22362" lon="4.91192">
        <ele>118</ele>
        <time>2026-08-13T11:08:55+00:00</time>
      </trkpt>
      <trkpt lat="50.2235" lon="4.91184">
        <ele>120</ele>
        <time>2026-08-13T11:08:58+00:00</time>
      </trkpt>
      <trkpt lat="50.22337" lon="4.91176">
        <ele>120</ele>
        <time>2026-08-13T11:09:01+00:00</time>
      </trkpt>
      <trkpt lat="50.22341" lon="4.91196">
        <ele>124</ele>
        <time>2026-08-13T11:09:04+00:00</time>
      </trkpt>
      <trkpt lat="50.22358" lon="4.91215">
        <ele>127</ele>
        <time>2026-08-13T11:09:07+00:00</time>
      </trkpt>
      <trkpt lat="50.22369" lon="4.91229">
        <ele>127</ele>
        <time>2026-08-13T11:09:10+00:00</time>
      </trkpt>
      <trkpt lat="50.22371" lon="4.91271">
        <ele>135</ele>
        <time>2026-08-13T11:09:13+00:00</time>
      </trkpt>
      <trkpt lat="50.22378" lon="4.9131">
        <ele>136</ele>
        <time>2026-08-13T11:09:16+00:00</time>
      </trkpt>
      <trkpt lat="50.22391" lon="4.9133">
        <ele>138</ele>
        <time>2026-08-13T11:09:19+00:00</time>
      </trkpt>
      <trkpt lat="50.22388" lon="4.91343">
        <ele>151</ele>
        <time>2026-08-13T11:09:22+00:00</time>
      </trkpt>
      <trkpt lat="50.22387" lon="4.91371">
        <ele>158</ele>
        <time>2026-08-13T11:09:25+00:00</time>
      </trkpt>
      <trkpt lat="50.22394" lon="4.91407">
        <ele>160</ele>
        <time>2026-08-13T11:09:28+00:00</time>
      </trkpt>
      <trkpt lat="50.22412" lon="4.91454">
        <ele>163</ele>
        <time>2026-08-13T11:09:31+00:00</time>
      </trkpt>
      <trkpt lat="50.22415" lon="4.91471">
        <ele>166</ele>
        <time>2026-08-13T11:09:34+00:00</time>
      </trkpt>
      <trkpt lat="50.22419" lon="4.91516">
        <ele>175</ele>
        <time>2026-08-13T11:09:37+00:00</time>
      </trkpt>
      <trkpt lat="50.22429" lon="4.91557">
        <ele>176</ele>
        <time>2026-08-13T11:09:40+00:00</time>
      </trkpt>
      <trkpt lat="50.22441" lon="4.91586">
        <ele>181</ele>
        <time>2026-08-13T11:09:43+00:00</time>
      </trkpt>
      <trkpt lat="50.22451" lon="4.91605">
        <ele>183</ele>
        <time>2026-08-13T11:09:46+00:00</time>
      </trkpt>
      <trkpt lat="50.22462" lon="4.91618">
        <ele>183</ele>
        <time>2026-08-13T11:09:49+00:00</time>
      </trkpt>
      <trkpt lat="50.22474" lon="4.91632">
        <ele>183</ele>
        <time>2026-08-13T11:09:52+00:00</time>
      </trkpt>
      <trkpt lat="50.22494" lon="4.91653">
        <ele>182</ele>
        <time>2026-08-13T11:09:55+00:00</time>
      </trkpt>
      <trkpt lat="50.2252" lon="4.91681">
        <ele>182</ele>
        <time>2026-08-13T11:09:58+00:00</time>
      </trkpt>
      <trkpt lat="50.22549" lon="4.91707">
        <ele>184</ele>
        <time>2026-08-13T11:10:01+00:00</time>
      </trkpt>
      <trkpt lat="50.22562" lon="4.91704">
        <ele>186</ele>
        <time>2026-08-13T11:10:04+00:00</time>
      </trkpt>
      <trkpt lat="50.2257" lon="4.91699">
        <ele>186</ele>
        <time>2026-08-13T11:10:07+00:00</time>
      </trkpt>
      <trkpt lat="50.2258" lon="4.91684">
        <ele>187</ele>
        <time>2026-08-13T11:10:10+00:00</time>
      </trkpt>
      <trkpt lat="50.22594" lon="4.91675">
        <ele>187</ele>
        <time>2026-08-13T11:10:13+00:00</time>
      </trkpt>
      <trkpt lat="50.22617" lon="4.91679">
        <ele>191</ele>
        <time>2026-08-13T11:10:16+00:00</time>
      </trkpt>
      <trkpt lat="50.22646" lon="4.91684">
        <ele>196</ele>
        <time>2026-08-13T11:10:19+00:00</time>
      </trkpt>
      <trkpt lat="50.22678" lon="4.91683">
        <ele>198</ele>
        <time>2026-08-13T11:10:22+00:00</time>
      </trkpt>
      <trkpt lat="50.22684" lon="4.91679">
        <ele>201</ele>
        <time>2026-08-13T11:10:25+00:00</time>
      </trkpt>
      <trkpt lat="50.2269" lon="4.91671">
        <ele>204</ele>
        <time>2026-08-13T11:10:28+00:00</time>
      </trkpt>
      <trkpt lat="50.22695" lon="4.91662">
        <ele>203</ele>
        <time>2026-08-13T11:10:31+00:00</time>
      </trkpt>
      <trkpt lat="50.22701" lon="4.91655">
        <ele>205</ele>
        <time>2026-08-13T11:10:34+00:00</time>
      </trkpt>
      <trkpt lat="50.22708" lon="4.91649">
        <ele>204</ele>
        <time>2026-08-13T11:10:37+00:00</time>
      </trkpt>
      <trkpt lat="50.22712" lon="4.91637">
        <ele>205</ele>
        <time>2026-08-13T11:10:40+00:00</time>
      </trkpt>
      <trkpt lat="50.22714" lon="4.91626">
        <ele>204</ele>
        <time>2026-08-13T11:10:43+00:00</time>
      </trkpt>
      <trkpt lat="50.22713" lon="4.91615">
        <ele>204</ele>
        <time>2026-08-13T11:10:46+00:00</time>
      </trkpt>
      <trkpt lat="50.22725" lon="4.91611">
        <ele>206</ele>
        <time>2026-08-13T11:10:49+00:00</time>
      </trkpt>
      <trkpt lat="50.22735" lon="4.91603">
        <ele>208</ele>
        <time>2026-08-13T11:10:52+00:00</time>
      </trkpt>
      <trkpt lat="50.22749" lon="4.91587">
        <ele>208</ele>
        <time>2026-08-13T11:10:55+00:00</time>
      </trkpt>
      <trkpt lat="50.22766" lon="4.91562">
        <ele>213</ele>
        <time>2026-08-13T11:10:58+00:00</time>
      </trkpt>
      <trkpt lat="50.22778" lon="4.91553">
        <ele>216</ele>
        <time>2026-08-13T11:11:01+00:00</time>
      </trkpt>
      <trkpt lat="50.22789" lon="4.91536">
        <ele>213</ele>
        <time>2026-08-13T11:11:04+00:00</time>
      </trkpt>
      <trkpt lat="50.22801" lon="4.9152">
        <ele>214</ele>
        <time>2026-08-13T11:11:07+00:00</time>
      </trkpt>
      <trkpt lat="50.22821" lon="4.91497">
        <ele>213</ele>
        <time>2026-08-13T11:11:10+00:00</time>
      </trkpt>
      <trkpt lat="50.22837" lon="4.91483">
        <ele>213</ele>
        <time>2026-08-13T11:11:13+00:00</time>
      </trkpt>
      <trkpt lat="50.22854" lon="4.91472">
        <ele>213</ele>
        <time>2026-08-13T11:11:16+00:00</time>
      </trkpt>
      <trkpt lat="50.2285" lon="4.91459">
        <ele>213</ele>
        <time>2026-08-13T11:11:19+00:00</time>
      </trkpt>
      <trkpt lat="50.22867" lon="4.91463">
        <ele>213</ele>
        <time>2026-08-13T11:11:22+00:00</time>
      </trkpt>
      <trkpt lat="50.22885" lon="4.91468">
        <ele>213</ele>
        <time>2026-08-13T11:11:25+00:00</time>
      </trkpt>
      <trkpt lat="50.22902" lon="4.91461">
        <ele>211</ele>
        <time>2026-08-13T11:11:28+00:00</time>
      </trkpt>
      <trkpt lat="50.22913" lon="4.9145">
        <ele>211</ele>
        <time>2026-08-13T11:11:31+00:00</time>
      </trkpt>
      <trkpt lat="50.22916" lon="4.91439">
        <ele>211</ele>
        <time>2026-08-13T11:11:34+00:00</time>
      </trkpt>
      <trkpt lat="50.22918" lon="4.91406">
        <ele>207</ele>
        <time>2026-08-13T11:11:37+00:00</time>
      </trkpt>
      <trkpt lat="50.22925" lon="4.91357">
        <ele>211</ele>
        <time>2026-08-13T11:11:40+00:00</time>
      </trkpt>
      <trkpt lat="50.22933" lon="4.91348">
        <ele>212</ele>
        <time>2026-08-13T11:11:43+00:00</time>
      </trkpt>
      <trkpt lat="50.22957" lon="4.91332">
        <ele>210</ele>
        <time>2026-08-13T11:11:46+00:00</time>
      </trkpt>
      <trkpt lat="50.22964" lon="4.9131">
        <ele>213</ele>
        <time>2026-08-13T11:11:49+00:00</time>
      </trkpt>
      <trkpt lat="50.22973" lon="4.91299">
        <ele>209</ele>
        <time>2026-08-13T11:11:52+00:00</time>
      </trkpt>
      <trkpt lat="50.22979" lon="4.91284">
        <ele>207</ele>
        <time>2026-08-13T11:11:55+00:00</time>
      </trkpt>
      <trkpt lat="50.22986" lon="4.91259">
        <ele>200</ele>
        <time>2026-08-13T11:11:58+00:00</time>
      </trkpt>
      <trkpt lat="50.22998" lon="4.91239">
        <ele>196</ele>
        <time>2026-08-13T11:12:01+00:00</time>
      </trkpt>
      <trkpt lat="50.23022" lon="4.91209">
        <ele>194</ele>
        <time>2026-08-13T11:12:04+00:00</time>
      </trkpt>
      <trkpt lat="50.23036" lon="4.91202">
        <ele>195</ele>
        <time>2026-08-13T11:12:07+00:00</time>
      </trkpt>
      <trkpt lat="50.2306" lon="4.91199">
        <ele>190</ele>
        <time>2026-08-13T11:12:10+00:00</time>
      </trkpt>
      <trkpt lat="50.23074" lon="4.9119">
        <ele>187</ele>
        <time>2026-08-13T11:12:13+00:00</time>
      </trkpt>
      <trkpt lat="50.23073" lon="4.91179">
        <ele>184</ele>
        <time>2026-08-13T11:12:16+00:00</time>
      </trkpt>
      <trkpt lat="50.23052" lon="4.91168">
        <ele>183</ele>
        <time>2026-08-13T11:12:19+00:00</time>
      </trkpt>
      <trkpt lat="50.23074" lon="4.91137">
        <ele>175</ele>
        <time>2026-08-13T11:12:22+00:00</time>
      </trkpt>
      <trkpt lat="50.23078" lon="4.9112">
        <ele>173</ele>
        <time>2026-08-13T11:12:25+00:00</time>
      </trkpt>
      <trkpt lat="50.23079" lon="4.91102">
        <ele>170</ele>
        <time>2026-08-13T11:12:28+00:00</time>
      </trkpt>
      <trkpt lat="50.23078" lon="4.9108">
        <ele>165</ele>
        <time>2026-08-13T11:12:31+00:00</time>
      </trkpt>
      <trkpt lat="50.23073" lon="4.91051">
        <ele>159</ele>
        <time>2026-08-13T11:12:34+00:00</time>
      </trkpt>
      <trkpt lat="50.23067" lon="4.9101">
        <ele>151</ele>
        <time>2026-08-13T11:12:37+00:00</time>
      </trkpt>
      <trkpt lat="50.23065" lon="4.90987">
        <ele>148</ele>
        <time>2026-08-13T11:12:40+00:00</time>
      </trkpt>
      <trkpt lat="50.23061" lon="4.90964">
        <ele>149</ele>
        <time>2026-08-13T11:12:43+00:00</time>
      </trkpt>
      <trkpt lat="50.23074" lon="4.90958">
        <ele>146</ele>
        <time>2026-08-13T11:12:46+00:00</time>
      </trkpt>
      <trkpt lat="50.23087" lon="4.90944">
        <ele>149</ele>
        <time>2026-08-13T11:12:49+00:00</time>
      </trkpt>
      <trkpt lat="50.23101" lon="4.9093">
        <ele>149</ele>
        <time>2026-08-13T11:12:52+00:00</time>
      </trkpt>
      <trkpt lat="50.23114" lon="4.90909">
        <ele>149</ele>
        <time>2026-08-13T11:12:55+00:00</time>
      </trkpt>
      <trkpt lat="50.23122" lon="4.9089">
        <ele>149</ele>
        <time>2026-08-13T11:12:58+00:00</time>
      </trkpt>
      <trkpt lat="50.2312" lon="4.90868">
        <ele>149</ele>
        <time>2026-08-13T11:13:01+00:00</time>
      </trkpt>
      <trkpt lat="50.23122" lon="4.90845">
        <ele>149</ele>
        <time>2026-08-13T11:13:04+00:00</time>
      </trkpt>
      <trkpt lat="50.23114" lon="4.90828">
        <ele>149</ele>
        <time>2026-08-13T11:13:07+00:00</time>
      </trkpt>
      <trkpt lat="50.23119" lon="4.90787">
        <ele>149</ele>
        <time>2026-08-13T11:13:10+00:00</time>
      </trkpt>
      <trkpt lat="50.23116" lon="4.90751">
        <ele>150</ele>
        <time>2026-08-13T11:13:13+00:00</time>
      </trkpt>
      <trkpt lat="50.23112" lon="4.90709">
        <ele>154</ele>
        <time>2026-08-13T11:13:16+00:00</time>
      </trkpt>
      <trkpt lat="50.2311" lon="4.90664">
        <ele>156</ele>
        <time>2026-08-13T11:13:19+00:00</time>
      </trkpt>
      <trkpt lat="50.2311" lon="4.90627">
        <ele>157</ele>
        <time>2026-08-13T11:13:22+00:00</time>
      </trkpt>
      <trkpt lat="50.23102" lon="4.90596">
        <ele>158</ele>
        <time>2026-08-13T11:13:25+00:00</time>
      </trkpt>
      <trkpt lat="50.23097" lon="4.90563">
        <ele>161</ele>
        <time>2026-08-13T11:13:28+00:00</time>
      </trkpt>
      <trkpt lat="50.23091" lon="4.90529">
        <ele>163</ele>
        <time>2026-08-13T11:13:31+00:00</time>
      </trkpt>
      <trkpt lat="50.23071" lon="4.90495">
        <ele>164</ele>
        <time>2026-08-13T11:13:34+00:00</time>
      </trkpt>
      <trkpt lat="50.23056" lon="4.90476">
        <ele>162</ele>
        <time>2026-08-13T11:13:37+00:00</time>
      </trkpt>
      <trkpt lat="50.23036" lon="4.90439">
        <ele>161</ele>
        <time>2026-08-13T11:13:40+00:00</time>
      </trkpt>
      <trkpt lat="50.23029" lon="4.90391">
        <ele>160</ele>
        <time>2026-08-13T11:13:43+00:00</time>
      </trkpt>
      <trkpt lat="50.2303" lon="4.90372">
        <ele>159</ele>
        <time>2026-08-13T11:13:46+00:00</time>
      </trkpt>
      <trkpt lat="50.2303" lon="4.90333">
        <ele>159</ele>
        <time>2026-08-13T11:13:49+00:00</time>
      </trkpt>
      <trkpt lat="50.23027" lon="4.903">
        <ele>159</ele>
        <time>2026-08-13T11:13:52+00:00</time>
      </trkpt>
      <trkpt lat="50.23004" lon="4.90245">
        <ele>160</ele>
        <time>2026-08-13T11:13:55+00:00</time>
      </trkpt>
      <trkpt lat="50.23008" lon="4.90204">
        <ele>160</ele>
        <time>2026-08-13T11:13:58+00:00</time>
      </trkpt>
      <trkpt lat="50.23016" lon="4.90197">
        <ele>160</ele>
        <time>2026-08-13T11:14:01+00:00</time>
      </trkpt>
      <trkpt lat="50.23036" lon="4.90189">
        <ele>161</ele>
        <time>2026-08-13T11:14:04+00:00</time>
      </trkpt>
      <trkpt lat="50.23059" lon="4.90172">
        <ele>160</ele>
        <time>2026-08-13T11:14:07+00:00</time>
      </trkpt>
      <trkpt lat="50.23057" lon="4.9015">
        <ele>161</ele>
        <time>2026-08-13T11:14:10+00:00</time>
      </trkpt>
      <trkpt lat="50.23046" lon="4.90124">
        <ele>159</ele>
        <time>2026-08-13T11:14:13+00:00</time>
      </trkpt>
      <trkpt lat="50.23027" lon="4.90094">
        <ele>158</ele>
        <time>2026-08-13T11:14:16+00:00</time>
      </trkpt>
      <trkpt lat="50.23007" lon="4.90047">
        <ele>155</ele>
        <time>2026-08-13T11:14:19+00:00</time>
      </trkpt>
      <trkpt lat="50.23016" lon="4.90038">
        <ele>147</ele>
        <time>2026-08-13T11:14:22+00:00</time>
      </trkpt>
      <trkpt lat="50.23043" lon="4.9003">
        <ele>153</ele>
        <time>2026-08-13T11:14:25+00:00</time>
      </trkpt>
      <trkpt lat="50.23076" lon="4.90042">
        <ele>153</ele>
        <time>2026-08-13T11:14:28+00:00</time>
      </trkpt>
      <trkpt lat="50.2309" lon="4.90036">
        <ele>148</ele>
        <time>2026-08-13T11:14:31+00:00</time>
      </trkpt>
      <trkpt lat="50.23097" lon="4.90029">
        <ele>150</ele>
        <time>2026-08-13T11:14:34+00:00</time>
      </trkpt>
      <trkpt lat="50.23106" lon="4.90018">
        <ele>137</ele>
        <time>2026-08-13T11:14:37+00:00</time>
      </trkpt>
      <trkpt lat="50.23106" lon="4.90025">
        <ele>140</ele>
        <time>2026-08-13T11:14:40+00:00</time>
      </trkpt>
      <trkpt lat="50.23109" lon="4.90045">
        <ele>147</ele>
        <time>2026-08-13T11:14:43+00:00</time>
      </trkpt>
      <trkpt lat="50.23113" lon="4.90064">
        <ele>145</ele>
        <time>2026-08-13T11:14:46+00:00</time>
      </trkpt>
      <trkpt lat="50.23121" lon="4.90091">
        <ele>144</ele>
        <time>2026-08-13T11:14:49+00:00</time>
      </trkpt>
      <trkpt lat="50.23131" lon="4.90121">
        <ele>144</ele>
        <time>2026-08-13T11:14:52+00:00</time>
      </trkpt>
      <trkpt lat="50.23142" lon="4.90152">
        <ele>145</ele>
        <time>2026-08-13T11:14:55+00:00</time>
      </trkpt>
      <trkpt lat="50.23162" lon="4.90204">
        <ele>146</ele>
        <time>2026-08-13T11:14:58+00:00</time>
      </trkpt>
      <trkpt lat="50.23183" lon="4.90254">
        <ele>149</ele>
        <time>2026-08-13T11:15:01+00:00</time>
      </trkpt>
      <trkpt lat="50.23208" lon="4.90305">
        <ele>151</ele>
        <time>2026-08-13T11:15:04+00:00</time>
      </trkpt>
      <trkpt lat="50.23223" lon="4.90326">
        <ele>151</ele>
        <time>2026-08-13T11:15:07+00:00</time>
      </trkpt>
      <trkpt lat="50.23225" lon="4.90332">
        <ele>152</ele>
        <time>2026-08-13T11:15:10+00:00</time>
      </trkpt>
      <trkpt lat="50.23246" lon="4.90353">
        <ele>150</ele>
        <time>2026-08-13T11:15:13+00:00</time>
      </trkpt>
      <trkpt lat="50.23263" lon="4.90368">
        <ele>150</ele>
        <time>2026-08-13T11:15:16+00:00</time>
      </trkpt>
      <trkpt lat="50.23283" lon="4.90382">
        <ele>150</ele>
        <time>2026-08-13T11:15:19+00:00</time>
      </trkpt>
      <trkpt lat="50.23292" lon="4.90393">
        <ele>149</ele>
        <time>2026-08-13T11:15:22+00:00</time>
      </trkpt>
      <trkpt lat="50.23306" lon="4.90416">
        <ele>150</ele>
        <time>2026-08-13T11:15:25+00:00</time>
      </trkpt>
      <trkpt lat="50.23315" lon="4.90435">
        <ele>151</ele>
        <time>2026-08-13T11:15:28+00:00</time>
      </trkpt>
      <trkpt lat="50.23337" lon="4.90422">
        <ele>145</ele>
        <time>2026-08-13T11:15:31+00:00</time>
      </trkpt>
      <trkpt lat="50.2336" lon="4.90443">
        <ele>142</ele>
        <time>2026-08-13T11:15:34+00:00</time>
      </trkpt>
      <trkpt lat="50.23397" lon="4.90476">
        <ele>139</ele>
        <time>2026-08-13T11:15:37+00:00</time>
      </trkpt>
      <trkpt lat="50.23412" lon="4.90488">
        <ele>135</ele>
        <time>2026-08-13T11:15:40+00:00</time>
      </trkpt>
      <trkpt lat="50.23418" lon="4.90503">
        <ele>137</ele>
        <time>2026-08-13T11:15:43+00:00</time>
      </trkpt>
      <trkpt lat="50.23422" lon="4.9053">
        <ele>137</ele>
        <time>2026-08-13T11:15:46+00:00</time>
      </trkpt>
      <trkpt lat="50.2343" lon="4.9055">
        <ele>139</ele>
        <time>2026-08-13T11:15:49+00:00</time>
      </trkpt>
      <trkpt lat="50.23437" lon="4.90559">
        <ele>137</ele>
        <time>2026-08-13T11:15:52+00:00</time>
      </trkpt>
      <trkpt lat="50.2345" lon="4.90547">
        <ele>134</ele>
        <time>2026-08-13T11:15:55+00:00</time>
      </trkpt>
      <trkpt lat="50.2347" lon="4.90557">
        <ele>128</ele>
        <time>2026-08-13T11:15:58+00:00</time>
      </trkpt>
      <trkpt lat="50.2348" lon="4.90563">
        <ele>128</ele>
        <time>2026-08-13T11:16:01+00:00</time>
      </trkpt>
      <trkpt lat="50.23493" lon="4.90575">
        <ele>128</ele>
        <time>2026-08-13T11:16:04+00:00</time>
      </trkpt>
      <trkpt lat="50.23509" lon="4.90601">
        <ele>131</ele>
        <time>2026-08-13T11:16:07+00:00</time>
      </trkpt>
      <trkpt lat="50.23517" lon="4.90623">
        <ele>133</ele>
        <time>2026-08-13T11:16:10+00:00</time>
      </trkpt>
      <trkpt lat="50.23524" lon="4.90631">
        <ele>133</ele>
        <time>2026-08-13T11:16:13+00:00</time>
      </trkpt>
      <trkpt lat="50.2355" lon="4.90667">
        <ele>133</ele>
        <time>2026-08-13T11:16:16+00:00</time>
      </trkpt>
      <trkpt lat="50.23583" lon="4.90692">
        <ele>133</ele>
        <time>2026-08-13T11:16:19+00:00</time>
      </trkpt>
      <trkpt lat="50.23581" lon="4.90689">
        <ele>133</ele>
        <time>2026-08-13T11:16:22+00:00</time>
      </trkpt>
      <trkpt lat="50.23583" lon="4.90692">
        <ele>133</ele>
        <time>2026-08-13T11:16:25+00:00</time>
      </trkpt>
      <trkpt lat="50.23597" lon="4.90726">
        <ele>133</ele>
        <time>2026-08-13T11:16:28+00:00</time>
      </trkpt>
      <trkpt lat="50.23624" lon="4.90791">
        <ele>134</ele>
        <time>2026-08-13T11:16:31+00:00</time>
      </trkpt>
      <trkpt lat="50.23622" lon="4.9079">
        <ele>134</ele>
        <time>2026-08-13T11:16:34+00:00</time>
      </trkpt>
      <trkpt lat="50.23624" lon="4.90791">
        <ele>134</ele>
        <time>2026-08-13T11:16:37+00:00</time>
      </trkpt>
      <trkpt lat="50.23639" lon="4.90824">
        <ele>134</ele>
        <time>2026-08-13T11:16:40+00:00</time>
      </trkpt>
      <trkpt lat="50.23639" lon="4.90836">
        <ele>134</ele>
        <time>2026-08-13T11:16:43+00:00</time>
      </trkpt>
      <trkpt lat="50.23647" lon="4.90851">
        <ele>134</ele>
        <time>2026-08-13T11:16:46+00:00</time>
      </trkpt>
      <trkpt lat="50.23661" lon="4.90887">
        <ele>131</ele>
        <time>2026-08-13T11:16:49+00:00</time>
      </trkpt>
      <trkpt lat="50.23666" lon="4.90898">
        <ele>131</ele>
        <time>2026-08-13T11:16:52+00:00</time>
      </trkpt>
      <trkpt lat="50.2368" lon="4.90917">
        <ele>128</ele>
        <time>2026-08-13T11:16:55+00:00</time>
      </trkpt>
      <trkpt lat="50.23696" lon="4.90939">
        <ele>128</ele>
        <time>2026-08-13T11:16:58+00:00</time>
      </trkpt>
      <trkpt lat="50.23728" lon="4.90976">
        <ele>123</ele>
        <time>2026-08-13T11:17:01+00:00</time>
      </trkpt>
      <trkpt lat="50.23746" lon="4.91">
        <ele>120</ele>
        <time>2026-08-13T11:17:04+00:00</time>
      </trkpt>
      <trkpt lat="50.23769" lon="4.91029">
        <ele>117</ele>
        <time>2026-08-13T11:17:07+00:00</time>
      </trkpt>
      <trkpt lat="50.23781" lon="4.91043">
        <ele>114</ele>
        <time>2026-08-13T11:17:10+00:00</time>
      </trkpt>
      <trkpt lat="50.23779" lon="4.91045">
        <ele>116</ele>
        <time>2026-08-13T11:17:13+00:00</time>
      </trkpt>
      <trkpt lat="50.23781" lon="4.91043">
        <ele>114</ele>
        <time>2026-08-13T11:17:16+00:00</time>
      </trkpt>
      <trkpt lat="50.23783" lon="4.91034">
        <ele>113</ele>
        <time>2026-08-13T11:17:19+00:00</time>
      </trkpt>
      <trkpt lat="50.23785" lon="4.91015">
        <ele>112</ele>
        <time>2026-08-13T11:17:22+00:00</time>
      </trkpt>
      <trkpt lat="50.23785" lon="4.90996">
        <ele>111</ele>
        <time>2026-08-13T11:17:25+00:00</time>
      </trkpt>
      <trkpt lat="50.23786" lon="4.90993">
        <ele>111</ele>
        <time>2026-08-13T11:17:28+00:00</time>
      </trkpt>
      <trkpt lat="50.23792" lon="4.90995">
        <ele>109</ele>
        <time>2026-08-13T11:17:31+00:00</time>
      </trkpt>
      <trkpt lat="50.23803" lon="4.91007">
        <ele>106</ele>
        <time>2026-08-13T11:17:34+00:00</time>
      </trkpt>
      <trkpt lat="50.23804" lon="4.91005">
        <ele>106</ele>
        <time>2026-08-13T11:17:37+00:00</time>
      </trkpt>
      <trkpt lat="50.23802" lon="4.90984">
        <ele>104</ele>
        <time>2026-08-13T11:17:40+00:00</time>
      </trkpt>
      <trkpt lat="50.23817" lon="4.91006">
        <ele>104</ele>
        <time>2026-08-13T11:17:43+00:00</time>
      </trkpt>
      <trkpt lat="50.23807" lon="4.9098">
        <ele>104</ele>
        <time>2026-08-13T11:17:46+00:00</time>
      </trkpt>
      <trkpt lat="50.23805" lon="4.90971">
        <ele>102</ele>
        <time>2026-08-13T11:17:49+00:00</time>
      </trkpt>
      <trkpt lat="50.23805" lon="4.90969">
        <ele>101</ele>
        <time>2026-08-13T11:17:52+00:00</time>
      </trkpt>
      <trkpt lat="50.23806" lon="4.90961">
        <ele>101</ele>
        <time>2026-08-13T11:17:55+00:00</time>
      </trkpt>
      <trkpt lat="50.23817" lon="4.90929">
        <ele>96</ele>
        <time>2026-08-13T11:17:58+00:00</time>
      </trkpt>
      <trkpt lat="50.2382" lon="4.90918">
        <ele>92</ele>
        <time>2026-08-13T11:18:01+00:00</time>
      </trkpt>
      <trkpt lat="50.23821" lon="4.909">
        <ele>92</ele>
        <time>2026-08-13T11:18:04+00:00</time>
      </trkpt>
      <trkpt lat="50.23827" lon="4.90852">
        <ele>92</ele>
        <time>2026-08-13T11:18:07+00:00</time>
      </trkpt>
      <trkpt lat="50.23831" lon="4.90818">
        <ele>92</ele>
        <time>2026-08-13T11:18:10+00:00</time>
      </trkpt>
      <trkpt lat="50.23835" lon="4.90781">
        <ele>92</ele>
        <time>2026-08-13T11:18:13+00:00</time>
      </trkpt>
      <trkpt lat="50.23857" lon="4.90793">
        <ele>92</ele>
        <time>2026-08-13T11:18:16+00:00</time>
      </trkpt>
      <trkpt lat="50.23877" lon="4.90805">
        <ele>91</ele>
        <time>2026-08-13T11:18:19+00:00</time>
      </trkpt>
      <trkpt lat="50.23898" lon="4.90817">
        <ele>91</ele>
        <time>2026-08-13T11:18:22+00:00</time>
      </trkpt>
      <trkpt lat="50.23906" lon="4.90821">
        <ele>93</ele>
        <time>2026-08-13T11:18:25+00:00</time>
      </trkpt>
      <trkpt lat="50.23912" lon="4.90827">
        <ele>93</ele>
        <time>2026-08-13T11:18:28+00:00</time>
      </trkpt>
      <trkpt lat="50.23916" lon="4.90834">
        <ele>91</ele>
        <time>2026-08-13T11:18:31+00:00</time>
      </trkpt>
      <trkpt lat="50.2392" lon="4.90873">
        <ele>92</ele>
        <time>2026-08-13T11:18:34+00:00</time>
      </trkpt>
      <trkpt lat="50.2392" lon="4.90885">
        <ele>91</ele>
        <time>2026-08-13T11:18:37+00:00</time>
      </trkpt>
      <trkpt lat="50.23924" lon="4.90932">
        <ele>92</ele>
        <time>2026-08-13T11:18:40+00:00</time>
      </trkpt>
      <trkpt lat="50.23931" lon="4.9093">
        <ele>92</ele>
        <time>2026-08-13T11:18:43+00:00</time>
      </trkpt>
      <trkpt lat="50.23951" lon="4.90926">
        <ele>91</ele>
        <time>2026-08-13T11:18:46+00:00</time>
      </trkpt>
      <trkpt lat="50.23974" lon="4.90922">
        <ele>91</ele>
        <time>2026-08-13T11:18:49+00:00</time>
      </trkpt>
      <trkpt lat="50.2399" lon="4.90918">
        <ele>91</ele>
        <time>2026-08-13T11:18:52+00:00</time>
      </trkpt>
      <trkpt lat="50.23997" lon="4.90917">
        <ele>91</ele>
        <time>2026-08-13T11:18:55+00:00</time>
      </trkpt>
      <trkpt lat="50.23998" lon="4.90915">
        <ele>91</ele>
        <time>2026-08-13T11:18:58+00:00</time>
      </trkpt>
      <trkpt lat="50.24004" lon="4.9091">
        <ele>91</ele>
        <time>2026-08-13T11:19:01+00:00</time>
      </trkpt>
      <trkpt lat="50.2401" lon="4.90913">
        <ele>91</ele>
        <time>2026-08-13T11:19:04+00:00</time>
      </trkpt>
      <trkpt lat="50.24026" lon="4.90908">
        <ele>93</ele>
        <time>2026-08-13T11:19:07+00:00</time>
      </trkpt>
      <trkpt lat="50.24032" lon="4.90884">
        <ele>94</ele>
        <time>2026-08-13T11:19:10+00:00</time>
      </trkpt>
      <trkpt lat="50.24036" lon="4.90879">
        <ele>94</ele>
        <time>2026-08-13T11:19:13+00:00</time>
      </trkpt>
      <trkpt lat="50.24045" lon="4.909">
        <ele>95</ele>
        <time>2026-08-13T11:19:16+00:00</time>
      </trkpt>
      <trkpt lat="50.24052" lon="4.90933">
        <ele>96</ele>
        <time>2026-08-13T11:19:19+00:00</time>
      </trkpt>
      <trkpt lat="50.24056" lon="4.91">
        <ele>96</ele>
        <time>2026-08-13T11:19:22+00:00</time>
      </trkpt>
      <trkpt lat="50.24057" lon="4.91047">
        <ele>95</ele>
        <time>2026-08-13T11:19:25+00:00</time>
      </trkpt>
      <trkpt lat="50.24059" lon="4.91093">
        <ele>95</ele>
        <time>2026-08-13T11:19:28+00:00</time>
      </trkpt>
      <trkpt lat="50.24061" lon="4.91151">
        <ele>95</ele>
        <time>2026-08-13T11:19:31+00:00</time>
      </trkpt>
      <trkpt lat="50.24063" lon="4.91185">
        <ele>96</ele>
        <time>2026-08-13T11:19:34+00:00</time>
      </trkpt>
      <trkpt lat="50.24066" lon="4.91219">
        <ele>96</ele>
        <time>2026-08-13T11:19:37+00:00</time>
      </trkpt>
      <trkpt lat="50.24069" lon="4.91243">
        <ele>95</ele>
        <time>2026-08-13T11:19:40+00:00</time>
      </trkpt>
      <trkpt lat="50.24073" lon="4.91239">
        <ele>96</ele>
        <time>2026-08-13T11:19:43+00:00</time>
      </trkpt>
      <trkpt lat="50.24075" lon="4.91246">
        <ele>96</ele>
        <time>2026-08-13T11:19:46+00:00</time>
      </trkpt>
      <trkpt lat="50.24084" lon="4.91261">
        <ele>98</ele>
        <time>2026-08-13T11:19:49+00:00</time>
      </trkpt>
      <trkpt lat="50.24085" lon="4.91268">
        <ele>98</ele>
        <time>2026-08-13T11:19:52+00:00</time>
      </trkpt>
      <trkpt lat="50.24085" lon="4.91278">
        <ele>98</ele>
        <time>2026-08-13T11:19:55+00:00</time>
      </trkpt>
      <trkpt lat="50.24086" lon="4.91281">
        <ele>97</ele>
        <time>2026-08-13T11:19:58+00:00</time>
      </trkpt>
      <trkpt lat="50.24089" lon="4.91284">
        <ele>97</ele>
        <time>2026-08-13T11:20:01+00:00</time>
      </trkpt>
      <trkpt lat="50.24096" lon="4.91247">
        <ele>98</ele>
        <time>2026-08-13T11:20:04+00:00</time>
      </trkpt>
      <trkpt lat="50.241" lon="4.91244">
        <ele>98</ele>
        <time>2026-08-13T11:20:07+00:00</time>
      </trkpt>
      <trkpt lat="50.24119" lon="4.9124">
        <ele>100</ele>
        <time>2026-08-13T11:20:10+00:00</time>
      </trkpt>
      <trkpt lat="50.24122" lon="4.9124">
        <ele>111</ele>
        <time>2026-08-13T11:20:13+00:00</time>
      </trkpt>
      <trkpt lat="50.24126" lon="4.91278">
        <ele>109</ele>
        <time>2026-08-13T11:20:16+00:00</time>
      </trkpt>
      <trkpt lat="50.24131" lon="4.91336">
        <ele>109</ele>
        <time>2026-08-13T11:20:19+00:00</time>
      </trkpt>
      <trkpt lat="50.2414" lon="4.91401">
        <ele>108</ele>
        <time>2026-08-13T11:20:22+00:00</time>
      </trkpt>
      <trkpt lat="50.24148" lon="4.91438">
        <ele>108</ele>
        <time>2026-08-13T11:20:25+00:00</time>
      </trkpt>
      <trkpt lat="50.24159" lon="4.91488">
        <ele>107</ele>
        <time>2026-08-13T11:20:28+00:00</time>
      </trkpt>
      <trkpt lat="50.24177" lon="4.91532">
        <ele>112</ele>
        <time>2026-08-13T11:20:31+00:00</time>
      </trkpt>
      <trkpt lat="50.24193" lon="4.91557">
        <ele>114</ele>
        <time>2026-08-13T11:20:34+00:00</time>
      </trkpt>
      <trkpt lat="50.24211" lon="4.91583">
        <ele>113</ele>
        <time>2026-08-13T11:20:37+00:00</time>
      </trkpt>
      <trkpt lat="50.24234" lon="4.91616">
        <ele>113</ele>
        <time>2026-08-13T11:20:40+00:00</time>
      </trkpt>
      <trkpt lat="50.24264" lon="4.91664">
        <ele>111</ele>
        <time>2026-08-13T11:20:43+00:00</time>
      </trkpt>
      <trkpt lat="50.24282" lon="4.91686">
        <ele>110</ele>
        <time>2026-08-13T11:20:46+00:00</time>
      </trkpt>
      <trkpt lat="50.24303" lon="4.91712">
        <ele>108</ele>
        <time>2026-08-13T11:20:49+00:00</time>
      </trkpt>
      <trkpt lat="50.24323" lon="4.91731">
        <ele>106</ele>
        <time>2026-08-13T11:20:52+00:00</time>
      </trkpt>
      <trkpt lat="50.24349" lon="4.91756">
        <ele>103</ele>
        <time>2026-08-13T11:20:55+00:00</time>
      </trkpt>
      <trkpt lat="50.24384" lon="4.91771">
        <ele>102</ele>
        <time>2026-08-13T11:20:58+00:00</time>
      </trkpt>
      <trkpt lat="50.24411" lon="4.91774">
        <ele>101</ele>
        <time>2026-08-13T11:21:01+00:00</time>
      </trkpt>
      <trkpt lat="50.24454" lon="4.91778">
        <ele>99</ele>
        <time>2026-08-13T11:21:04+00:00</time>
      </trkpt>
      <trkpt lat="50.2447" lon="4.91763">
        <ele>99</ele>
        <time>2026-08-13T11:21:07+00:00</time>
      </trkpt>
      <trkpt lat="50.24495" lon="4.91765">
        <ele>99</ele>
        <time>2026-08-13T11:21:10+00:00</time>
      </trkpt>
      <trkpt lat="50.24509" lon="4.9177">
        <ele>98</ele>
        <time>2026-08-13T11:21:13+00:00</time>
      </trkpt>
      <trkpt lat="50.24514" lon="4.91766">
        <ele>98</ele>
        <time>2026-08-13T11:21:16+00:00</time>
      </trkpt>
      <trkpt lat="50.2452" lon="4.91763">
        <ele>96</ele>
        <time>2026-08-13T11:21:19+00:00</time>
      </trkpt>
      <trkpt lat="50.24544" lon="4.91757">
        <ele>98</ele>
        <time>2026-08-13T11:21:22+00:00</time>
      </trkpt>
      <trkpt lat="50.24584" lon="4.91746">
        <ele>98</ele>
        <time>2026-08-13T11:21:25+00:00</time>
      </trkpt>
      <trkpt lat="50.24605" lon="4.91738">
        <ele>98</ele>
        <time>2026-08-13T11:21:28+00:00</time>
      </trkpt>
      <trkpt lat="50.24632" lon="4.91724">
        <ele>98</ele>
        <time>2026-08-13T11:21:31+00:00</time>
      </trkpt>
      <trkpt lat="50.24635" lon="4.91718">
        <ele>99</ele>
        <time>2026-08-13T11:21:34+00:00</time>
      </trkpt>
      <trkpt lat="50.24637" lon="4.91712">
        <ele>99</ele>
        <time>2026-08-13T11:21:37+00:00</time>
      </trkpt>
      <trkpt lat="50.24636" lon="4.91705">
        <ele>101</ele>
        <time>2026-08-13T11:21:40+00:00</time>
      </trkpt>
      <trkpt lat="50.2463" lon="4.91675">
        <ele>102</ele>
        <time>2026-08-13T11:21:43+00:00</time>
      </trkpt>
      <trkpt lat="50.24629" lon="4.91663">
        <ele>103</ele>
        <time>2026-08-13T11:21:46+00:00</time>
      </trkpt>
      <trkpt lat="50.24629" lon="4.91654">
        <ele>104</ele>
        <time>2026-08-13T11:21:49+00:00</time>
      </trkpt>
      <trkpt lat="50.24631" lon="4.91645">
        <ele>105</ele>
        <time>2026-08-13T11:21:52+00:00</time>
      </trkpt>
      <trkpt lat="50.24636" lon="4.91636">
        <ele>106</ele>
        <time>2026-08-13T11:21:55+00:00</time>
      </trkpt>
      <trkpt lat="50.24643" lon="4.9163">
        <ele>106</ele>
        <time>2026-08-13T11:21:58+00:00</time>
      </trkpt>
      <trkpt lat="50.24662" lon="4.91612">
        <ele>107</ele>
        <time>2026-08-13T11:22:01+00:00</time>
      </trkpt>
      <trkpt lat="50.24696" lon="4.91579">
        <ele>109</ele>
        <time>2026-08-13T11:22:04+00:00</time>
      </trkpt>
      <trkpt lat="50.24712" lon="4.91572">
        <ele>110</ele>
        <time>2026-08-13T11:22:07+00:00</time>
      </trkpt>
      <trkpt lat="50.24726" lon="4.91563">
        <ele>111</ele>
        <time>2026-08-13T11:22:10+00:00</time>
      </trkpt>
      <trkpt lat="50.24741" lon="4.91552">
        <ele>111</ele>
        <time>2026-08-13T11:22:13+00:00</time>
      </trkpt>
      <trkpt lat="50.24763" lon="4.91542">
        <ele>112</ele>
        <time>2026-08-13T11:22:16+00:00</time>
      </trkpt>
      <trkpt lat="50.24789" lon="4.91531">
        <ele>112</ele>
        <time>2026-08-13T11:22:19+00:00</time>
      </trkpt>
      <trkpt lat="50.24801" lon="4.91523">
        <ele>111</ele>
        <time>2026-08-13T11:22:22+00:00</time>
      </trkpt>
      <trkpt lat="50.24802" lon="4.9152">
        <ele>114</ele>
        <time>2026-08-13T11:22:25+00:00</time>
      </trkpt>
      <trkpt lat="50.2481" lon="4.91515">
        <ele>112</ele>
        <time>2026-08-13T11:22:28+00:00</time>
      </trkpt>
      <trkpt lat="50.24832" lon="4.91508">
        <ele>112</ele>
        <time>2026-08-13T11:22:31+00:00</time>
      </trkpt>
      <trkpt lat="50.24855" lon="4.91501">
        <ele>109</ele>
        <time>2026-08-13T11:22:34+00:00</time>
      </trkpt>
      <trkpt lat="50.24872" lon="4.915">
        <ele>108</ele>
        <time>2026-08-13T11:22:37+00:00</time>
      </trkpt>
      <trkpt lat="50.24884" lon="4.91505">
        <ele>105</ele>
        <time>2026-08-13T11:22:40+00:00</time>
      </trkpt>
      <trkpt lat="50.24901" lon="4.91518">
        <ele>103</ele>
        <time>2026-08-13T11:22:43+00:00</time>
      </trkpt>
      <trkpt lat="50.24932" lon="4.91505">
        <ele>103</ele>
        <time>2026-08-13T11:22:46+00:00</time>
      </trkpt>
      <trkpt lat="50.24959" lon="4.91488">
        <ele>104</ele>
        <time>2026-08-13T11:22:49+00:00</time>
      </trkpt>
      <trkpt lat="50.24987" lon="4.9147">
        <ele>105</ele>
        <time>2026-08-13T11:22:52+00:00</time>
      </trkpt>
      <trkpt lat="50.25019" lon="4.9145">
        <ele>107</ele>
        <time>2026-08-13T11:22:55+00:00</time>
      </trkpt>
      <trkpt lat="50.2505" lon="4.91437">
        <ele>110</ele>
        <time>2026-08-13T11:22:58+00:00</time>
      </trkpt>
      <trkpt lat="50.25071" lon="4.91437">
        <ele>113</ele>
        <time>2026-08-13T11:23:01+00:00</time>
      </trkpt>
      <trkpt lat="50.25082" lon="4.91424">
        <ele>111</ele>
        <time>2026-08-13T11:23:04+00:00</time>
      </trkpt>
      <trkpt lat="50.25088" lon="4.91414">
        <ele>114</ele>
        <time>2026-08-13T11:23:07+00:00</time>
      </trkpt>
      <trkpt lat="50.25107" lon="4.91397">
        <ele>112</ele>
        <time>2026-08-13T11:23:10+00:00</time>
      </trkpt>
      <trkpt lat="50.25118" lon="4.91379">
        <ele>114</ele>
        <time>2026-08-13T11:23:13+00:00</time>
      </trkpt>
      <trkpt lat="50.25127" lon="4.91361">
        <ele>112</ele>
        <time>2026-08-13T11:23:16+00:00</time>
      </trkpt>
      <trkpt lat="50.25136" lon="4.91341">
        <ele>113</ele>
        <time>2026-08-13T11:23:19+00:00</time>
      </trkpt>
      <trkpt lat="50.25159" lon="4.91323">
        <ele>124</ele>
        <time>2026-08-13T11:23:22+00:00</time>
      </trkpt>
      <trkpt lat="50.25193" lon="4.91296">
        <ele>127</ele>
        <time>2026-08-13T11:23:25+00:00</time>
      </trkpt>
      <trkpt lat="50.25206" lon="4.91284">
        <ele>127</ele>
        <time>2026-08-13T11:23:28+00:00</time>
      </trkpt>
      <trkpt lat="50.25232" lon="4.91276">
        <ele>127</ele>
        <time>2026-08-13T11:23:31+00:00</time>
      </trkpt>
      <trkpt lat="50.25257" lon="4.91268">
        <ele>126</ele>
        <time>2026-08-13T11:23:34+00:00</time>
      </trkpt>
      <trkpt lat="50.25294" lon="4.91256">
        <ele>126</ele>
        <time>2026-08-13T11:23:37+00:00</time>
      </trkpt>
      <trkpt lat="50.25311" lon="4.91244">
        <ele>129</ele>
        <time>2026-08-13T11:23:40+00:00</time>
      </trkpt>
      <trkpt lat="50.25333" lon="4.91204">
        <ele>132</ele>
        <time>2026-08-13T11:23:43+00:00</time>
      </trkpt>
      <trkpt lat="50.25332" lon="4.91192">
        <ele>134</ele>
        <time>2026-08-13T11:23:46+00:00</time>
      </trkpt>
      <trkpt lat="50.25336" lon="4.91181">
        <ele>136</ele>
        <time>2026-08-13T11:23:49+00:00</time>
      </trkpt>
      <trkpt lat="50.2534" lon="4.91178">
        <ele>138</ele>
        <time>2026-08-13T11:23:52+00:00</time>
      </trkpt>
      <trkpt lat="50.25343" lon="4.91174">
        <ele>137</ele>
        <time>2026-08-13T11:23:55+00:00</time>
      </trkpt>
      <trkpt lat="50.25351" lon="4.91168">
        <ele>138</ele>
        <time>2026-08-13T11:23:58+00:00</time>
      </trkpt>
      <trkpt lat="50.25362" lon="4.91165">
        <ele>138</ele>
        <time>2026-08-13T11:24:01+00:00</time>
      </trkpt>
      <trkpt lat="50.25385" lon="4.9116">
        <ele>133</ele>
        <time>2026-08-13T11:24:04+00:00</time>
      </trkpt>
      <trkpt lat="50.25414" lon="4.91154">
        <ele>131</ele>
        <time>2026-08-13T11:24:07+00:00</time>
      </trkpt>
      <trkpt lat="50.2544" lon="4.91154">
        <ele>127</ele>
        <time>2026-08-13T11:24:10+00:00</time>
      </trkpt>
      <trkpt lat="50.2548" lon="4.91154">
        <ele>126</ele>
        <time>2026-08-13T11:24:13+00:00</time>
      </trkpt>
      <trkpt lat="50.25511" lon="4.91157">
        <ele>124</ele>
        <time>2026-08-13T11:24:16+00:00</time>
      </trkpt>
      <trkpt lat="50.25542" lon="4.91159">
        <ele>122</ele>
        <time>2026-08-13T11:24:19+00:00</time>
      </trkpt>
      <trkpt lat="50.25593" lon="4.91164">
        <ele>115</ele>
        <time>2026-08-13T11:24:22+00:00</time>
      </trkpt>
      <trkpt lat="50.25616" lon="4.91156">
        <ele>115</ele>
        <time>2026-08-13T11:24:25+00:00</time>
      </trkpt>
      <trkpt lat="50.25644" lon="4.91147">
        <ele>113</ele>
        <time>2026-08-13T11:24:28+00:00</time>
      </trkpt>
      <trkpt lat="50.25657" lon="4.91139">
        <ele>114</ele>
        <time>2026-08-13T11:24:31+00:00</time>
      </trkpt>
      <trkpt lat="50.25664" lon="4.91133">
        <ele>113</ele>
        <time>2026-08-13T11:24:34+00:00</time>
      </trkpt>
      <trkpt lat="50.25678" lon="4.91125">
        <ele>114</ele>
        <time>2026-08-13T11:24:37+00:00</time>
      </trkpt>
      <trkpt lat="50.25691" lon="4.9112">
        <ele>113</ele>
        <time>2026-08-13T11:24:40+00:00</time>
      </trkpt>
      <trkpt lat="50.25711" lon="4.9111">
        <ele>113</ele>
        <time>2026-08-13T11:24:43+00:00</time>
      </trkpt>
      <trkpt lat="50.25718" lon="4.91105">
        <ele>115</ele>
        <time>2026-08-13T11:24:46+00:00</time>
      </trkpt>
      <trkpt lat="50.25724" lon="4.91094">
        <ele>116</ele>
        <time>2026-08-13T11:24:49+00:00</time>
      </trkpt>
      <trkpt lat="50.2573" lon="4.91093">
        <ele>116</ele>
        <time>2026-08-13T11:24:52+00:00</time>
      </trkpt>
      <trkpt lat="50.25765" lon="4.91077">
        <ele>114</ele>
        <time>2026-08-13T11:24:55+00:00</time>
      </trkpt>
      <trkpt lat="50.25802" lon="4.91059">
        <ele>113</ele>
        <time>2026-08-13T11:24:58+00:00</time>
      </trkpt>
      <trkpt lat="50.25835" lon="4.91041">
        <ele>108</ele>
        <time>2026-08-13T11:25:01+00:00</time>
      </trkpt>
      <trkpt lat="50.25842" lon="4.91033">
        <ele>106</ele>
        <time>2026-08-13T11:25:04+00:00</time>
      </trkpt>
      <trkpt lat="50.25855" lon="4.91013">
        <ele>105</ele>
        <time>2026-08-13T11:25:07+00:00</time>
      </trkpt>
      <trkpt lat="50.2586" lon="4.91021">
        <ele>104</ele>
        <time>2026-08-13T11:25:10+00:00</time>
      </trkpt>
      <trkpt lat="50.25875" lon="4.91037">
        <ele>103</ele>
        <time>2026-08-13T11:25:13+00:00</time>
      </trkpt>
      <trkpt lat="50.25883" lon="4.91043">
        <ele>102</ele>
        <time>2026-08-13T11:25:16+00:00</time>
      </trkpt>
      <trkpt lat="50.25903" lon="4.91051">
        <ele>101</ele>
        <time>2026-08-13T11:25:19+00:00</time>
      </trkpt>
      <trkpt lat="50.25915" lon="4.91052">
        <ele>101</ele>
        <time>2026-08-13T11:25:22+00:00</time>
      </trkpt>
      <trkpt lat="50.25923" lon="4.9105">
        <ele>100</ele>
        <time>2026-08-13T11:25:25+00:00</time>
      </trkpt>
      <trkpt lat="50.25933" lon="4.91046">
        <ele>99</ele>
        <time>2026-08-13T11:25:28+00:00</time>
      </trkpt>
      <trkpt lat="50.25941" lon="4.91041">
        <ele>98</ele>
        <time>2026-08-13T11:25:31+00:00</time>
      </trkpt>
      <trkpt lat="50.25963" lon="4.91021">
        <ele>96</ele>
        <time>2026-08-13T11:25:34+00:00</time>
      </trkpt>
      <trkpt lat="50.25996" lon="4.90992">
        <ele>96</ele>
        <time>2026-08-13T11:25:37+00:00</time>
      </trkpt>
      <trkpt lat="50.25986" lon="4.90983">
        <ele>96</ele>
        <time>2026-08-13T11:25:40+00:00</time>
      </trkpt>
      <trkpt lat="50.2596" lon="4.90981">
        <ele>97</ele>
        <time>2026-08-13T11:25:43+00:00</time>
      </trkpt>
      <trkpt lat="50.25933" lon="4.90977">
        <ele>97</ele>
        <time>2026-08-13T11:25:46+00:00</time>
      </trkpt>
      <trkpt lat="50.2593" lon="4.90976">
        <ele>96</ele>
        <time>2026-08-13T11:25:49+00:00</time>
      </trkpt>
      <trkpt lat="50.25927" lon="4.90972">
        <ele>96</ele>
        <time>2026-08-13T11:25:52+00:00</time>
      </trkpt>
      <trkpt lat="50.25922" lon="4.9096">
        <ele>97</ele>
        <time>2026-08-13T11:25:55+00:00</time>
      </trkpt>
      <trkpt lat="50.25913" lon="4.90968">
        <ele>97</ele>
        <time>2026-08-13T11:25:58+00:00</time>
      </trkpt>
      <trkpt lat="50.25911" lon="4.90966">
        <ele>97</ele>
        <time>2026-08-13T11:26:01+00:00</time>
      </trkpt>
      <trkpt lat="50.25922" lon="4.90951">
        <ele>99</ele>
        <time>2026-08-13T11:26:04+00:00</time>
      </trkpt>
      <trkpt lat="50.2592" lon="4.90949">
        <ele>104</ele>
        <time>2026-08-13T11:26:07+00:00</time>
      </trkpt>
      <trkpt lat="50.25941" lon="4.90919">
        <ele>108</ele>
        <time>2026-08-13T11:26:10+00:00</time>
      </trkpt>
      <trkpt lat="50.2596" lon="4.90897">
        <ele>107</ele>
        <time>2026-08-13T11:26:13+00:00</time>
      </trkpt>
      <trkpt lat="50.25981" lon="4.90872">
        <ele>107</ele>
        <time>2026-08-13T11:26:16+00:00</time>
      </trkpt>
      <trkpt lat="50.26012" lon="4.90829">
        <ele>109</ele>
        <time>2026-08-13T11:26:19+00:00</time>
      </trkpt>
      <trkpt lat="50.26031" lon="4.90801">
        <ele>112</ele>
        <time>2026-08-13T11:26:22+00:00</time>
      </trkpt>
      <trkpt lat="50.2604" lon="4.90786">
        <ele>113</ele>
        <time>2026-08-13T11:26:25+00:00</time>
      </trkpt>
      <trkpt lat="50.26041" lon="4.90775">
        <ele>114</ele>
        <time>2026-08-13T11:26:28+00:00</time>
      </trkpt>
      <trkpt lat="50.26048" lon="4.90737">
        <ele>121</ele>
        <time>2026-08-13T11:26:31+00:00</time>
      </trkpt>
      <trkpt lat="50.26037" lon="4.90737">
        <ele>123</ele>
        <time>2026-08-13T11:26:34+00:00</time>
      </trkpt>
      <trkpt lat="50.2603" lon="4.9074">
        <ele>121</ele>
        <time>2026-08-13T11:26:37+00:00</time>
      </trkpt>
      <trkpt lat="50.26007" lon="4.90787">
        <ele>123</ele>
        <time>2026-08-13T11:26:40+00:00</time>
      </trkpt>
      <trkpt lat="50.26006" lon="4.90783">
        <ele>123</ele>
        <time>2026-08-13T11:26:43+00:00</time>
      </trkpt>
    </trkseg>
  </trk>
</gpx>
